<?xml version="1.0" encoding="UTF-8" standalone="no" ?>
<gpx xmlns="http://www.topografix.com/GPX/1/1" xmlns:xsi="http://www.w3.org/2001/XMLSchema-instance" xsi:schemaLocation="http://www.topografix.com/GPX/1/1 http://www.topografix.com/GPX/1/1/gpx.xsd" version="1.1" creator="VisuGPX - https://www.visugpx.com">
  <metadata>
    <name>Étang du roi</name>
    <desc><![CDATA[Une sortie au pas et éducative pour Trinker, et un peuTénébra...]]></desc>
  </metadata>
  <trk>
    <name><![CDATA[Etang du roi]]></name>
    <trkseg>
      <trkpt lat="48.70809" lon="1.74563">
        <ele>176.19999694824</ele>
        <time>2012-03-25T10:22:31.000Z</time>
      </trkpt>
      <trkpt lat="48.70809" lon="1.74563">
        <ele>176.19999694824</ele>
        <time>2012-03-25T10:22:33.000Z</time>
      </trkpt>
      <trkpt lat="48.70799" lon="1.74558">
        <ele>176.39999389648</ele>
        <time>2012-03-25T10:25:10.000Z</time>
      </trkpt>
      <trkpt lat="48.70799" lon="1.74558">
        <ele>176.39999389648</ele>
        <time>2012-03-25T10:25:11.000Z</time>
      </trkpt>
      <trkpt lat="48.70803" lon="1.74558">
        <ele>176.39999389648</ele>
        <time>2012-03-25T10:25:39.000Z</time>
      </trkpt>
      <trkpt lat="48.70803" lon="1.74559">
        <ele>176.39999389648</ele>
        <time>2012-03-25T10:25:40.000Z</time>
      </trkpt>
      <trkpt lat="48.70805" lon="1.74561">
        <ele>176.39999389648</ele>
        <time>2012-03-25T10:25:44.000Z</time>
      </trkpt>
      <trkpt lat="48.70805" lon="1.74562">
        <ele>176.39999389648</ele>
        <time>2012-03-25T10:25:46.000Z</time>
      </trkpt>
      <trkpt lat="48.70793" lon="1.74547">
        <ele>176.39999389648</ele>
        <time>2012-03-25T10:27:45.000Z</time>
      </trkpt>
      <trkpt lat="48.70786" lon="1.74537">
        <ele>176.60000610352</ele>
        <time>2012-03-25T10:27:52.000Z</time>
      </trkpt>
      <trkpt lat="48.7078" lon="1.74529">
        <ele>176.60000610352</ele>
        <time>2012-03-25T10:27:59.000Z</time>
      </trkpt>
      <trkpt lat="48.70776" lon="1.74524">
        <ele>176.60000610352</ele>
        <time>2012-03-25T10:28:03.000Z</time>
      </trkpt>
      <trkpt lat="48.70772" lon="1.7452">
        <ele>176.80000305176</ele>
        <time>2012-03-25T10:28:07.000Z</time>
      </trkpt>
      <trkpt lat="48.70764" lon="1.74509">
        <ele>176.80000305176</ele>
        <time>2012-03-25T10:28:17.000Z</time>
      </trkpt>
      <trkpt lat="48.70757" lon="1.74502">
        <ele>177</ele>
        <time>2012-03-25T10:28:24.000Z</time>
      </trkpt>
      <trkpt lat="48.70753" lon="1.74497">
        <ele>177</ele>
        <time>2012-03-25T10:28:28.000Z</time>
      </trkpt>
      <trkpt lat="48.70749" lon="1.74493">
        <ele>177.19999694824</ele>
        <time>2012-03-25T10:28:33.000Z</time>
      </trkpt>
      <trkpt lat="48.7074" lon="1.74481">
        <ele>177.60000610352</ele>
        <time>2012-03-25T10:28:43.000Z</time>
      </trkpt>
      <trkpt lat="48.70733" lon="1.74473">
        <ele>178</ele>
        <time>2012-03-25T10:28:51.000Z</time>
      </trkpt>
      <trkpt lat="48.7073" lon="1.74465">
        <ele>178.19999694824</ele>
        <time>2012-03-25T10:28:56.000Z</time>
      </trkpt>
      <trkpt lat="48.70733" lon="1.74459">
        <ele>178.19999694824</ele>
        <time>2012-03-25T10:29:00.000Z</time>
      </trkpt>
      <trkpt lat="48.70737" lon="1.74457">
        <ele>178</ele>
        <time>2012-03-25T10:29:03.000Z</time>
      </trkpt>
      <trkpt lat="48.70742" lon="1.74452">
        <ele>177.80000305176</ele>
        <time>2012-03-25T10:29:07.000Z</time>
      </trkpt>
      <trkpt lat="48.70748" lon="1.74448">
        <ele>177.80000305176</ele>
        <time>2012-03-25T10:29:12.000Z</time>
      </trkpt>
      <trkpt lat="48.70749" lon="1.74448">
        <ele>177.60000610352</ele>
        <time>2012-03-25T10:29:13.000Z</time>
      </trkpt>
      <trkpt lat="48.70751" lon="1.74446">
        <ele>177.60000610352</ele>
        <time>2012-03-25T10:29:15.000Z</time>
      </trkpt>
      <trkpt lat="48.70755" lon="1.74441">
        <ele>177.60000610352</ele>
        <time>2012-03-25T10:29:21.000Z</time>
      </trkpt>
      <trkpt lat="48.70756" lon="1.7444">
        <ele>177.60000610352</ele>
        <time>2012-03-25T10:29:22.000Z</time>
      </trkpt>
      <trkpt lat="48.70758" lon="1.74439">
        <ele>177.60000610352</ele>
        <time>2012-03-25T10:29:24.000Z</time>
      </trkpt>
      <trkpt lat="48.70762" lon="1.74436">
        <ele>177.60000610352</ele>
        <time>2012-03-25T10:29:28.000Z</time>
      </trkpt>
      <trkpt lat="48.70771" lon="1.7443">
        <ele>177.39999389648</ele>
        <time>2012-03-25T10:29:37.000Z</time>
      </trkpt>
      <trkpt lat="48.70778" lon="1.74425">
        <ele>177.19999694824</ele>
        <time>2012-03-25T10:29:43.000Z</time>
      </trkpt>
      <trkpt lat="48.70784" lon="1.74421">
        <ele>177.19999694824</ele>
        <time>2012-03-25T10:29:49.000Z</time>
      </trkpt>
      <trkpt lat="48.70791" lon="1.74416">
        <ele>177</ele>
        <time>2012-03-25T10:29:55.000Z</time>
      </trkpt>
      <trkpt lat="48.70793" lon="1.74416">
        <ele>177</ele>
        <time>2012-03-25T10:29:57.000Z</time>
      </trkpt>
      <trkpt lat="48.70799" lon="1.74411">
        <ele>177</ele>
        <time>2012-03-25T10:30:03.000Z</time>
      </trkpt>
      <trkpt lat="48.708" lon="1.7441">
        <ele>177</ele>
        <time>2012-03-25T10:30:04.000Z</time>
      </trkpt>
      <trkpt lat="48.70807" lon="1.74406">
        <ele>176.80000305176</ele>
        <time>2012-03-25T10:30:10.000Z</time>
      </trkpt>
      <trkpt lat="48.70812" lon="1.74401">
        <ele>176.80000305176</ele>
        <time>2012-03-25T10:30:15.000Z</time>
      </trkpt>
      <trkpt lat="48.70819" lon="1.74396">
        <ele>176.60000610352</ele>
        <time>2012-03-25T10:30:21.000Z</time>
      </trkpt>
      <trkpt lat="48.70826" lon="1.74389">
        <ele>176.60000610352</ele>
        <time>2012-03-25T10:30:28.000Z</time>
      </trkpt>
      <trkpt lat="48.70831" lon="1.74383">
        <ele>176.39999389648</ele>
        <time>2012-03-25T10:30:34.000Z</time>
      </trkpt>
      <trkpt lat="48.70835" lon="1.74377">
        <ele>176.39999389648</ele>
        <time>2012-03-25T10:30:38.000Z</time>
      </trkpt>
      <trkpt lat="48.70841" lon="1.74367">
        <ele>176.60000610352</ele>
        <time>2012-03-25T10:30:45.000Z</time>
      </trkpt>
      <trkpt lat="48.70844" lon="1.74362">
        <ele>176.60000610352</ele>
        <time>2012-03-25T10:30:49.000Z</time>
      </trkpt>
      <trkpt lat="48.70852" lon="1.74349">
        <ele>176.60000610352</ele>
        <time>2012-03-25T10:30:58.000Z</time>
      </trkpt>
      <trkpt lat="48.70855" lon="1.74344">
        <ele>176.60000610352</ele>
        <time>2012-03-25T10:31:04.000Z</time>
      </trkpt>
      <trkpt lat="48.7086" lon="1.74333">
        <ele>176.80000305176</ele>
        <time>2012-03-25T10:31:13.000Z</time>
      </trkpt>
      <trkpt lat="48.70865" lon="1.74324">
        <ele>177</ele>
        <time>2012-03-25T10:31:19.000Z</time>
      </trkpt>
      <trkpt lat="48.70866" lon="1.74322">
        <ele>177.19999694824</ele>
        <time>2012-03-25T10:31:21.000Z</time>
      </trkpt>
      <trkpt lat="48.7087" lon="1.74315">
        <ele>177.39999389648</ele>
        <time>2012-03-25T10:31:26.000Z</time>
      </trkpt>
      <trkpt lat="48.70873" lon="1.74309">
        <ele>177.60000610352</ele>
        <time>2012-03-25T10:31:31.000Z</time>
      </trkpt>
      <trkpt lat="48.70877" lon="1.74303">
        <ele>178</ele>
        <time>2012-03-25T10:31:36.000Z</time>
      </trkpt>
      <trkpt lat="48.70878" lon="1.74301">
        <ele>178</ele>
        <time>2012-03-25T10:31:40.000Z</time>
      </trkpt>
      <trkpt lat="48.70885" lon="1.74288">
        <ele>178.60000610352</ele>
        <time>2012-03-25T10:31:55.000Z</time>
      </trkpt>
      <trkpt lat="48.70887" lon="1.74286">
        <ele>178.80000305176</ele>
        <time>2012-03-25T10:31:56.000Z</time>
      </trkpt>
      <trkpt lat="48.70892" lon="1.74279">
        <ele>179.19999694824</ele>
        <time>2012-03-25T10:32:01.000Z</time>
      </trkpt>
      <trkpt lat="48.70893" lon="1.74276">
        <ele>179.39999389648</ele>
        <time>2012-03-25T10:32:03.000Z</time>
      </trkpt>
      <trkpt lat="48.70899" lon="1.74264">
        <ele>180</ele>
        <time>2012-03-25T10:32:11.000Z</time>
      </trkpt>
      <trkpt lat="48.70904" lon="1.74252">
        <ele>180.80000305176</ele>
        <time>2012-03-25T10:32:18.000Z</time>
      </trkpt>
      <trkpt lat="48.70906" lon="1.74247">
        <ele>181</ele>
        <time>2012-03-25T10:32:22.000Z</time>
      </trkpt>
      <trkpt lat="48.70908" lon="1.74239">
        <ele>181.19999694824</ele>
        <time>2012-03-25T10:32:28.000Z</time>
      </trkpt>
      <trkpt lat="48.70908" lon="1.74236">
        <ele>181.19999694824</ele>
        <time>2012-03-25T10:32:32.000Z</time>
      </trkpt>
      <trkpt lat="48.70907" lon="1.74229">
        <ele>181.39999389648</ele>
        <time>2012-03-25T10:32:37.000Z</time>
      </trkpt>
      <trkpt lat="48.70907" lon="1.74229">
        <ele>181.39999389648</ele>
        <time>2012-03-25T10:32:38.000Z</time>
      </trkpt>
      <trkpt lat="48.70908" lon="1.74224">
        <ele>181.60000610352</ele>
        <time>2012-03-25T10:33:14.000Z</time>
      </trkpt>
      <trkpt lat="48.70907" lon="1.74223">
        <ele>181.60000610352</ele>
        <time>2012-03-25T10:33:16.000Z</time>
      </trkpt>
      <trkpt lat="48.70922" lon="1.74178">
        <ele>182.60000610352</ele>
        <time>2012-03-25T10:34:49.000Z</time>
      </trkpt>
      <trkpt lat="48.70925" lon="1.74164">
        <ele>182.60000610352</ele>
        <time>2012-03-25T10:34:55.000Z</time>
      </trkpt>
      <trkpt lat="48.70928" lon="1.74146">
        <ele>182.60000610352</ele>
        <time>2012-03-25T10:35:04.000Z</time>
      </trkpt>
      <trkpt lat="48.70929" lon="1.74144">
        <ele>182.60000610352</ele>
        <time>2012-03-25T10:35:06.000Z</time>
      </trkpt>
      <trkpt lat="48.70931" lon="1.74138">
        <ele>182.60000610352</ele>
        <time>2012-03-25T10:35:11.000Z</time>
      </trkpt>
      <trkpt lat="48.70931" lon="1.74125">
        <ele>182.60000610352</ele>
        <time>2012-03-25T10:35:18.000Z</time>
      </trkpt>
      <trkpt lat="48.70934" lon="1.74118">
        <ele>182.60000610352</ele>
        <time>2012-03-25T10:35:22.000Z</time>
      </trkpt>
      <trkpt lat="48.70937" lon="1.74105">
        <ele>182.60000610352</ele>
        <time>2012-03-25T10:35:29.000Z</time>
      </trkpt>
      <trkpt lat="48.70938" lon="1.74101">
        <ele>182.60000610352</ele>
        <time>2012-03-25T10:35:32.000Z</time>
      </trkpt>
      <trkpt lat="48.70938" lon="1.74099">
        <ele>182.60000610352</ele>
        <time>2012-03-25T10:35:35.000Z</time>
      </trkpt>
      <trkpt lat="48.70939" lon="1.74094">
        <ele>182.60000610352</ele>
        <time>2012-03-25T10:35:45.000Z</time>
      </trkpt>
      <trkpt lat="48.70942" lon="1.74084">
        <ele>182.60000610352</ele>
        <time>2012-03-25T10:35:49.000Z</time>
      </trkpt>
      <trkpt lat="48.70945" lon="1.74072">
        <ele>182.60000610352</ele>
        <time>2012-03-25T10:35:55.000Z</time>
      </trkpt>
      <trkpt lat="48.70946" lon="1.74058">
        <ele>182.60000610352</ele>
        <time>2012-03-25T10:36:02.000Z</time>
      </trkpt>
      <trkpt lat="48.70952" lon="1.74036">
        <ele>182.60000610352</ele>
        <time>2012-03-25T10:36:08.000Z</time>
      </trkpt>
      <trkpt lat="48.70956" lon="1.74016">
        <ele>182.60000610352</ele>
        <time>2012-03-25T10:36:13.000Z</time>
      </trkpt>
      <trkpt lat="48.70959" lon="1.74004">
        <ele>182.39999389648</ele>
        <time>2012-03-25T10:36:18.000Z</time>
      </trkpt>
      <trkpt lat="48.70962" lon="1.73993">
        <ele>182.60000610352</ele>
        <time>2012-03-25T10:36:24.000Z</time>
      </trkpt>
      <trkpt lat="48.70964" lon="1.73978">
        <ele>182.80000305176</ele>
        <time>2012-03-25T10:36:32.000Z</time>
      </trkpt>
      <trkpt lat="48.70968" lon="1.73964">
        <ele>183.19999694824</ele>
        <time>2012-03-25T10:36:39.000Z</time>
      </trkpt>
      <trkpt lat="48.70972" lon="1.73944">
        <ele>183.60000610352</ele>
        <time>2012-03-25T10:36:46.000Z</time>
      </trkpt>
      <trkpt lat="48.70977" lon="1.73922">
        <ele>184.39999389648</ele>
        <time>2012-03-25T10:36:57.000Z</time>
      </trkpt>
      <trkpt lat="48.70982" lon="1.73904">
        <ele>184.19999694824</ele>
        <time>2012-03-25T10:37:06.000Z</time>
      </trkpt>
      <trkpt lat="48.70985" lon="1.73891">
        <ele>184</ele>
        <time>2012-03-25T10:37:13.000Z</time>
      </trkpt>
      <trkpt lat="48.70988" lon="1.73876">
        <ele>183.60000610352</ele>
        <time>2012-03-25T10:37:20.000Z</time>
      </trkpt>
      <trkpt lat="48.70991" lon="1.7386">
        <ele>183.39999389648</ele>
        <time>2012-03-25T10:37:28.000Z</time>
      </trkpt>
      <trkpt lat="48.70995" lon="1.73844">
        <ele>183</ele>
        <time>2012-03-25T10:37:35.000Z</time>
      </trkpt>
      <trkpt lat="48.70998" lon="1.73828">
        <ele>182.80000305176</ele>
        <time>2012-03-25T10:37:43.000Z</time>
      </trkpt>
      <trkpt lat="48.71001" lon="1.73816">
        <ele>182.60000610352</ele>
        <time>2012-03-25T10:37:50.000Z</time>
      </trkpt>
      <trkpt lat="48.70999" lon="1.73805">
        <ele>182.19999694824</ele>
        <time>2012-03-25T10:37:56.000Z</time>
      </trkpt>
      <trkpt lat="48.7099" lon="1.73804">
        <ele>181.80000305176</ele>
        <time>2012-03-25T10:38:02.000Z</time>
      </trkpt>
      <trkpt lat="48.70988" lon="1.73805">
        <ele>181.80000305176</ele>
        <time>2012-03-25T10:38:03.000Z</time>
      </trkpt>
      <trkpt lat="48.7098" lon="1.73805">
        <ele>181.60000610352</ele>
        <time>2012-03-25T10:38:09.000Z</time>
      </trkpt>
      <trkpt lat="48.70971" lon="1.73802">
        <ele>181</ele>
        <time>2012-03-25T10:38:16.000Z</time>
      </trkpt>
      <trkpt lat="48.70963" lon="1.73803">
        <ele>180.80000305176</ele>
        <time>2012-03-25T10:38:22.000Z</time>
      </trkpt>
      <trkpt lat="48.7096" lon="1.73803">
        <ele>180.60000610352</ele>
        <time>2012-03-25T10:38:25.000Z</time>
      </trkpt>
      <trkpt lat="48.7095" lon="1.73802">
        <ele>180.19999694824</ele>
        <time>2012-03-25T10:38:33.000Z</time>
      </trkpt>
      <trkpt lat="48.70942" lon="1.73801">
        <ele>179.80000305176</ele>
        <time>2012-03-25T10:38:38.000Z</time>
      </trkpt>
      <trkpt lat="48.70936" lon="1.73802">
        <ele>179.60000610352</ele>
        <time>2012-03-25T10:38:41.000Z</time>
      </trkpt>
      <trkpt lat="48.70934" lon="1.73803">
        <ele>179.60000610352</ele>
        <time>2012-03-25T10:38:44.000Z</time>
      </trkpt>
      <trkpt lat="48.70929" lon="1.73801">
        <ele>179.39999389648</ele>
        <time>2012-03-25T10:38:49.000Z</time>
      </trkpt>
      <trkpt lat="48.70923" lon="1.738">
        <ele>179</ele>
        <time>2012-03-25T10:38:55.000Z</time>
      </trkpt>
      <trkpt lat="48.70912" lon="1.73798">
        <ele>178.60000610352</ele>
        <time>2012-03-25T10:39:05.000Z</time>
      </trkpt>
      <trkpt lat="48.70909" lon="1.73798">
        <ele>178.60000610352</ele>
        <time>2012-03-25T10:39:09.000Z</time>
      </trkpt>
      <trkpt lat="48.70906" lon="1.73797">
        <ele>178.60000610352</ele>
        <time>2012-03-25T10:39:11.000Z</time>
      </trkpt>
      <trkpt lat="48.70895" lon="1.73794">
        <ele>178.39999389648</ele>
        <time>2012-03-25T10:39:19.000Z</time>
      </trkpt>
      <trkpt lat="48.70878" lon="1.73793">
        <ele>178.19999694824</ele>
        <time>2012-03-25T10:39:29.000Z</time>
      </trkpt>
      <trkpt lat="48.70872" lon="1.73793">
        <ele>178.19999694824</ele>
        <time>2012-03-25T10:39:33.000Z</time>
      </trkpt>
      <trkpt lat="48.70865" lon="1.7379">
        <ele>178.19999694824</ele>
        <time>2012-03-25T10:39:38.000Z</time>
      </trkpt>
      <trkpt lat="48.70862" lon="1.7379">
        <ele>178.19999694824</ele>
        <time>2012-03-25T10:39:40.000Z</time>
      </trkpt>
      <trkpt lat="48.70852" lon="1.73788">
        <ele>178</ele>
        <time>2012-03-25T10:39:47.000Z</time>
      </trkpt>
      <trkpt lat="48.70843" lon="1.7379">
        <ele>178</ele>
        <time>2012-03-25T10:39:54.000Z</time>
      </trkpt>
      <trkpt lat="48.70831" lon="1.7379">
        <ele>178</ele>
        <time>2012-03-25T10:40:01.000Z</time>
      </trkpt>
      <trkpt lat="48.70819" lon="1.7379">
        <ele>178.60000610352</ele>
        <time>2012-03-25T10:40:09.000Z</time>
      </trkpt>
      <trkpt lat="48.7081" lon="1.73787">
        <ele>178.80000305176</ele>
        <time>2012-03-25T10:40:16.000Z</time>
      </trkpt>
      <trkpt lat="48.70801" lon="1.73784">
        <ele>179.19999694824</ele>
        <time>2012-03-25T10:40:23.000Z</time>
      </trkpt>
      <trkpt lat="48.70788" lon="1.73783">
        <ele>179.80000305176</ele>
        <time>2012-03-25T10:40:32.000Z</time>
      </trkpt>
      <trkpt lat="48.70778" lon="1.73784">
        <ele>180.19999694824</ele>
        <time>2012-03-25T10:40:39.000Z</time>
      </trkpt>
      <trkpt lat="48.7077" lon="1.73782">
        <ele>180.39999389648</ele>
        <time>2012-03-25T10:40:45.000Z</time>
      </trkpt>
      <trkpt lat="48.7076" lon="1.73782">
        <ele>180.80000305176</ele>
        <time>2012-03-25T10:40:53.000Z</time>
      </trkpt>
      <trkpt lat="48.70751" lon="1.73776">
        <ele>181.39999389648</ele>
        <time>2012-03-25T10:41:01.000Z</time>
      </trkpt>
      <trkpt lat="48.70743" lon="1.73777">
        <ele>181</ele>
        <time>2012-03-25T10:41:08.000Z</time>
      </trkpt>
      <trkpt lat="48.70739" lon="1.73778">
        <ele>180.80000305176</ele>
        <time>2012-03-25T10:41:11.000Z</time>
      </trkpt>
      <trkpt lat="48.70736" lon="1.73778">
        <ele>180.60000610352</ele>
        <time>2012-03-25T10:41:16.000Z</time>
      </trkpt>
      <trkpt lat="48.70717" lon="1.73774">
        <ele>180</ele>
        <time>2012-03-25T10:45:15.000Z</time>
      </trkpt>
      <trkpt lat="48.70712" lon="1.73776">
        <ele>179.60000610352</ele>
        <time>2012-03-25T10:45:19.000Z</time>
      </trkpt>
      <trkpt lat="48.70711" lon="1.73778">
        <ele>179.39999389648</ele>
        <time>2012-03-25T10:45:25.000Z</time>
      </trkpt>
      <trkpt lat="48.70701" lon="1.73776">
        <ele>179</ele>
        <time>2012-03-25T10:45:36.000Z</time>
      </trkpt>
      <trkpt lat="48.70689" lon="1.73775">
        <ele>178.60000610352</ele>
        <time>2012-03-25T10:45:44.000Z</time>
      </trkpt>
      <trkpt lat="48.70676" lon="1.73773">
        <ele>178</ele>
        <time>2012-03-25T10:45:54.000Z</time>
      </trkpt>
      <trkpt lat="48.7067" lon="1.73773">
        <ele>177.80000305176</ele>
        <time>2012-03-25T10:46:01.000Z</time>
      </trkpt>
      <trkpt lat="48.70665" lon="1.7377">
        <ele>177.80000305176</ele>
        <time>2012-03-25T10:46:08.000Z</time>
      </trkpt>
      <trkpt lat="48.70654" lon="1.73767">
        <ele>177.39999389648</ele>
        <time>2012-03-25T10:46:15.000Z</time>
      </trkpt>
      <trkpt lat="48.70648" lon="1.73766">
        <ele>177.19999694824</ele>
        <time>2012-03-25T10:46:19.000Z</time>
      </trkpt>
      <trkpt lat="48.70639" lon="1.73765">
        <ele>177</ele>
        <time>2012-03-25T10:46:26.000Z</time>
      </trkpt>
      <trkpt lat="48.70634" lon="1.73765">
        <ele>176.80000305176</ele>
        <time>2012-03-25T10:46:29.000Z</time>
      </trkpt>
      <trkpt lat="48.70625" lon="1.73765">
        <ele>176.60000610352</ele>
        <time>2012-03-25T10:46:35.000Z</time>
      </trkpt>
      <trkpt lat="48.70617" lon="1.73765">
        <ele>176.19999694824</ele>
        <time>2012-03-25T10:46:40.000Z</time>
      </trkpt>
      <trkpt lat="48.70607" lon="1.73766">
        <ele>175.80000305176</ele>
        <time>2012-03-25T10:46:47.000Z</time>
      </trkpt>
      <trkpt lat="48.70601" lon="1.73766">
        <ele>175.60000610352</ele>
        <time>2012-03-25T10:46:51.000Z</time>
      </trkpt>
      <trkpt lat="48.7059" lon="1.73763">
        <ele>175.39999389648</ele>
        <time>2012-03-25T10:47:00.000Z</time>
      </trkpt>
      <trkpt lat="48.70579" lon="1.73764">
        <ele>175.19999694824</ele>
        <time>2012-03-25T10:47:08.000Z</time>
      </trkpt>
      <trkpt lat="48.70568" lon="1.73764">
        <ele>175.80000305176</ele>
        <time>2012-03-25T10:47:16.000Z</time>
      </trkpt>
      <trkpt lat="48.70561" lon="1.73764">
        <ele>176.19999694824</ele>
        <time>2012-03-25T10:47:22.000Z</time>
      </trkpt>
      <trkpt lat="48.70553" lon="1.73763">
        <ele>176.80000305176</ele>
        <time>2012-03-25T10:47:27.000Z</time>
      </trkpt>
      <trkpt lat="48.70545" lon="1.73762">
        <ele>177.19999694824</ele>
        <time>2012-03-25T10:47:33.000Z</time>
      </trkpt>
      <trkpt lat="48.7053" lon="1.73761">
        <ele>178</ele>
        <time>2012-03-25T10:47:42.000Z</time>
      </trkpt>
      <trkpt lat="48.70519" lon="1.7376">
        <ele>178.80000305176</ele>
        <time>2012-03-25T10:47:50.000Z</time>
      </trkpt>
      <trkpt lat="48.70509" lon="1.73758">
        <ele>179.39999389648</ele>
        <time>2012-03-25T10:47:57.000Z</time>
      </trkpt>
      <trkpt lat="48.70504" lon="1.73755">
        <ele>179.60000610352</ele>
        <time>2012-03-25T10:48:02.000Z</time>
      </trkpt>
      <trkpt lat="48.70498" lon="1.7376">
        <ele>179.80000305176</ele>
        <time>2012-03-25T10:48:11.000Z</time>
      </trkpt>
      <trkpt lat="48.70494" lon="1.73764">
        <ele>179.60000610352</ele>
        <time>2012-03-25T10:48:20.000Z</time>
      </trkpt>
      <trkpt lat="48.70495" lon="1.73764">
        <ele>179.60000610352</ele>
        <time>2012-03-25T10:48:25.000Z</time>
      </trkpt>
      <trkpt lat="48.70495" lon="1.73764">
        <ele>179.60000610352</ele>
        <time>2012-03-25T10:48:26.000Z</time>
      </trkpt>
      <trkpt lat="48.7049" lon="1.73761">
        <ele>179.80000305176</ele>
        <time>2012-03-25T10:48:46.000Z</time>
      </trkpt>
      <trkpt lat="48.70486" lon="1.73759">
        <ele>179.80000305176</ele>
        <time>2012-03-25T10:48:48.000Z</time>
      </trkpt>
      <trkpt lat="48.70476" lon="1.73756">
        <ele>180</ele>
        <time>2012-03-25T10:48:56.000Z</time>
      </trkpt>
      <trkpt lat="48.70467" lon="1.73752">
        <ele>180</ele>
        <time>2012-03-25T10:49:03.000Z</time>
      </trkpt>
      <trkpt lat="48.70457" lon="1.73753">
        <ele>180</ele>
        <time>2012-03-25T10:49:10.000Z</time>
      </trkpt>
      <trkpt lat="48.7045" lon="1.73752">
        <ele>180</ele>
        <time>2012-03-25T10:49:15.000Z</time>
      </trkpt>
      <trkpt lat="48.7044" lon="1.73751">
        <ele>180</ele>
        <time>2012-03-25T10:49:22.000Z</time>
      </trkpt>
      <trkpt lat="48.70433" lon="1.73751">
        <ele>180</ele>
        <time>2012-03-25T10:49:26.000Z</time>
      </trkpt>
      <trkpt lat="48.70425" lon="1.73752">
        <ele>180</ele>
        <time>2012-03-25T10:49:32.000Z</time>
      </trkpt>
      <trkpt lat="48.70415" lon="1.73749">
        <ele>180</ele>
        <time>2012-03-25T10:49:39.000Z</time>
      </trkpt>
      <trkpt lat="48.70407" lon="1.73748">
        <ele>179.80000305176</ele>
        <time>2012-03-25T10:49:46.000Z</time>
      </trkpt>
      <trkpt lat="48.70399" lon="1.73746">
        <ele>179.80000305176</ele>
        <time>2012-03-25T10:49:53.000Z</time>
      </trkpt>
      <trkpt lat="48.70388" lon="1.73747">
        <ele>179.60000610352</ele>
        <time>2012-03-25T10:50:01.000Z</time>
      </trkpt>
      <trkpt lat="48.70377" lon="1.73749">
        <ele>179.60000610352</ele>
        <time>2012-03-25T10:50:07.000Z</time>
      </trkpt>
      <trkpt lat="48.70362" lon="1.73745">
        <ele>179.39999389648</ele>
        <time>2012-03-25T10:50:18.000Z</time>
      </trkpt>
      <trkpt lat="48.70352" lon="1.73743">
        <ele>179.19999694824</ele>
        <time>2012-03-25T10:50:26.000Z</time>
      </trkpt>
      <trkpt lat="48.70342" lon="1.73742">
        <ele>179</ele>
        <time>2012-03-25T10:50:33.000Z</time>
      </trkpt>
      <trkpt lat="48.70329" lon="1.73741">
        <ele>179</ele>
        <time>2012-03-25T10:50:41.000Z</time>
      </trkpt>
      <trkpt lat="48.7032" lon="1.73738">
        <ele>178.80000305176</ele>
        <time>2012-03-25T10:50:45.000Z</time>
      </trkpt>
      <trkpt lat="48.70313" lon="1.73735">
        <ele>178.80000305176</ele>
        <time>2012-03-25T10:50:50.000Z</time>
      </trkpt>
      <trkpt lat="48.70303" lon="1.73734">
        <ele>178.80000305176</ele>
        <time>2012-03-25T10:50:58.000Z</time>
      </trkpt>
      <trkpt lat="48.70296" lon="1.73734">
        <ele>178.80000305176</ele>
        <time>2012-03-25T10:51:03.000Z</time>
      </trkpt>
      <trkpt lat="48.70287" lon="1.73733">
        <ele>178.60000610352</ele>
        <time>2012-03-25T10:51:10.000Z</time>
      </trkpt>
      <trkpt lat="48.70282" lon="1.73732">
        <ele>178.60000610352</ele>
        <time>2012-03-25T10:51:14.000Z</time>
      </trkpt>
      <trkpt lat="48.70271" lon="1.7373">
        <ele>178.60000610352</ele>
        <time>2012-03-25T10:51:21.000Z</time>
      </trkpt>
      <trkpt lat="48.70269" lon="1.7373">
        <ele>178.60000610352</ele>
        <time>2012-03-25T10:51:22.000Z</time>
      </trkpt>
      <trkpt lat="48.70262" lon="1.73729">
        <ele>178.60000610352</ele>
        <time>2012-03-25T10:51:28.000Z</time>
      </trkpt>
      <trkpt lat="48.70253" lon="1.7373">
        <ele>178.39999389648</ele>
        <time>2012-03-25T10:51:35.000Z</time>
      </trkpt>
      <trkpt lat="48.70244" lon="1.73728">
        <ele>178.60000610352</ele>
        <time>2012-03-25T10:51:43.000Z</time>
      </trkpt>
      <trkpt lat="48.70235" lon="1.7373">
        <ele>178.39999389648</ele>
        <time>2012-03-25T10:51:49.000Z</time>
      </trkpt>
      <trkpt lat="48.70225" lon="1.73728">
        <ele>178.39999389648</ele>
        <time>2012-03-25T10:51:56.000Z</time>
      </trkpt>
      <trkpt lat="48.70215" lon="1.73727">
        <ele>178.39999389648</ele>
        <time>2012-03-25T10:52:03.000Z</time>
      </trkpt>
      <trkpt lat="48.70212" lon="1.73727">
        <ele>178.39999389648</ele>
        <time>2012-03-25T10:52:05.000Z</time>
      </trkpt>
      <trkpt lat="48.70204" lon="1.73726">
        <ele>178.39999389648</ele>
        <time>2012-03-25T10:52:10.000Z</time>
      </trkpt>
      <trkpt lat="48.70195" lon="1.73724">
        <ele>178.39999389648</ele>
        <time>2012-03-25T10:52:14.000Z</time>
      </trkpt>
      <trkpt lat="48.70185" lon="1.73722">
        <ele>178.39999389648</ele>
        <time>2012-03-25T10:52:20.000Z</time>
      </trkpt>
      <trkpt lat="48.70177" lon="1.7372">
        <ele>178.39999389648</ele>
        <time>2012-03-25T10:52:25.000Z</time>
      </trkpt>
      <trkpt lat="48.70167" lon="1.73719">
        <ele>178.39999389648</ele>
        <time>2012-03-25T10:52:31.000Z</time>
      </trkpt>
      <trkpt lat="48.70166" lon="1.7372">
        <ele>178.39999389648</ele>
        <time>2012-03-25T10:52:32.000Z</time>
      </trkpt>
      <trkpt lat="48.70157" lon="1.73724">
        <ele>178.19999694824</ele>
        <time>2012-03-25T10:52:37.000Z</time>
      </trkpt>
      <trkpt lat="48.70148" lon="1.7372">
        <ele>178</ele>
        <time>2012-03-25T10:52:43.000Z</time>
      </trkpt>
      <trkpt lat="48.70139" lon="1.73716">
        <ele>178</ele>
        <time>2012-03-25T10:52:49.000Z</time>
      </trkpt>
      <trkpt lat="48.7013" lon="1.73716">
        <ele>177.80000305176</ele>
        <time>2012-03-25T10:52:56.000Z</time>
      </trkpt>
      <trkpt lat="48.70117" lon="1.73716">
        <ele>177.60000610352</ele>
        <time>2012-03-25T10:53:05.000Z</time>
      </trkpt>
      <trkpt lat="48.70108" lon="1.73719">
        <ele>177.39999389648</ele>
        <time>2012-03-25T10:53:12.000Z</time>
      </trkpt>
      <trkpt lat="48.70106" lon="1.73718">
        <ele>177.39999389648</ele>
        <time>2012-03-25T10:53:13.000Z</time>
      </trkpt>
      <trkpt lat="48.70099" lon="1.73717">
        <ele>177.19999694824</ele>
        <time>2012-03-25T10:53:18.000Z</time>
      </trkpt>
      <trkpt lat="48.70099" lon="1.73718">
        <ele>177.19999694824</ele>
        <time>2012-03-25T10:53:19.000Z</time>
      </trkpt>
      <trkpt lat="48.70089" lon="1.73718">
        <ele>177.19999694824</ele>
        <time>2012-03-25T10:53:34.000Z</time>
      </trkpt>
      <trkpt lat="48.70078" lon="1.73717">
        <ele>177</ele>
        <time>2012-03-25T10:53:41.000Z</time>
      </trkpt>
      <trkpt lat="48.70064" lon="1.73718">
        <ele>177.39999389648</ele>
        <time>2012-03-25T10:53:50.000Z</time>
      </trkpt>
      <trkpt lat="48.70055" lon="1.73716">
        <ele>177.39999389648</ele>
        <time>2012-03-25T10:53:56.000Z</time>
      </trkpt>
      <trkpt lat="48.70042" lon="1.73713">
        <ele>177.80000305176</ele>
        <time>2012-03-25T10:54:05.000Z</time>
      </trkpt>
      <trkpt lat="48.7004" lon="1.73714">
        <ele>177.80000305176</ele>
        <time>2012-03-25T10:54:09.000Z</time>
      </trkpt>
      <trkpt lat="48.7004" lon="1.73714">
        <ele>177.80000305176</ele>
        <time>2012-03-25T10:54:11.000Z</time>
      </trkpt>
      <trkpt lat="48.70037" lon="1.73719">
        <ele>177.80000305176</ele>
        <time>2012-03-25T10:54:19.000Z</time>
      </trkpt>
      <trkpt lat="48.70035" lon="1.73714">
        <ele>177.80000305176</ele>
        <time>2012-03-25T10:54:21.000Z</time>
      </trkpt>
      <trkpt lat="48.70026" lon="1.73711">
        <ele>178</ele>
        <time>2012-03-25T10:54:29.000Z</time>
      </trkpt>
      <trkpt lat="48.70023" lon="1.73703">
        <ele>178.19999694824</ele>
        <time>2012-03-25T10:54:33.000Z</time>
      </trkpt>
      <trkpt lat="48.70019" lon="1.73694">
        <ele>178.19999694824</ele>
        <time>2012-03-25T10:54:38.000Z</time>
      </trkpt>
      <trkpt lat="48.70015" lon="1.73689">
        <ele>178.39999389648</ele>
        <time>2012-03-25T10:54:42.000Z</time>
      </trkpt>
      <trkpt lat="48.70008" lon="1.73681">
        <ele>178.60000610352</ele>
        <time>2012-03-25T10:54:49.000Z</time>
      </trkpt>
      <trkpt lat="48.70002" lon="1.73668">
        <ele>179</ele>
        <time>2012-03-25T10:54:57.000Z</time>
      </trkpt>
      <trkpt lat="48.69998" lon="1.73654">
        <ele>178.60000610352</ele>
        <time>2012-03-25T10:55:04.000Z</time>
      </trkpt>
      <trkpt lat="48.69992" lon="1.73645">
        <ele>178.39999389648</ele>
        <time>2012-03-25T10:55:11.000Z</time>
      </trkpt>
      <trkpt lat="48.69984" lon="1.73634">
        <ele>178</ele>
        <time>2012-03-25T10:55:19.000Z</time>
      </trkpt>
      <trkpt lat="48.69978" lon="1.73625">
        <ele>177.60000610352</ele>
        <time>2012-03-25T10:55:26.000Z</time>
      </trkpt>
      <trkpt lat="48.69971" lon="1.73614">
        <ele>177.19999694824</ele>
        <time>2012-03-25T10:55:34.000Z</time>
      </trkpt>
      <trkpt lat="48.69965" lon="1.73607">
        <ele>177</ele>
        <time>2012-03-25T10:55:40.000Z</time>
      </trkpt>
      <trkpt lat="48.69962" lon="1.73599">
        <ele>176.80000305176</ele>
        <time>2012-03-25T10:55:46.000Z</time>
      </trkpt>
      <trkpt lat="48.69957" lon="1.73591">
        <ele>176.60000610352</ele>
        <time>2012-03-25T10:55:53.000Z</time>
      </trkpt>
      <trkpt lat="48.69951" lon="1.73577">
        <ele>176.39999389648</ele>
        <time>2012-03-25T10:56:00.000Z</time>
      </trkpt>
      <trkpt lat="48.6995" lon="1.73575">
        <ele>176.39999389648</ele>
        <time>2012-03-25T10:56:01.000Z</time>
      </trkpt>
      <trkpt lat="48.69944" lon="1.73572">
        <ele>176.19999694824</ele>
        <time>2012-03-25T10:56:05.000Z</time>
      </trkpt>
      <trkpt lat="48.69938" lon="1.73562">
        <ele>176.19999694824</ele>
        <time>2012-03-25T10:56:12.000Z</time>
      </trkpt>
      <trkpt lat="48.6993" lon="1.73551">
        <ele>176</ele>
        <time>2012-03-25T10:56:20.000Z</time>
      </trkpt>
      <trkpt lat="48.69922" lon="1.73541">
        <ele>176</ele>
        <time>2012-03-25T10:56:28.000Z</time>
      </trkpt>
      <trkpt lat="48.69917" lon="1.73533">
        <ele>176</ele>
        <time>2012-03-25T10:56:34.000Z</time>
      </trkpt>
      <trkpt lat="48.6991" lon="1.73526">
        <ele>176.19999694824</ele>
        <time>2012-03-25T10:56:41.000Z</time>
      </trkpt>
      <trkpt lat="48.69903" lon="1.73521">
        <ele>176.60000610352</ele>
        <time>2012-03-25T10:56:48.000Z</time>
      </trkpt>
      <trkpt lat="48.69898" lon="1.73516">
        <ele>176.60000610352</ele>
        <time>2012-03-25T10:56:52.000Z</time>
      </trkpt>
      <trkpt lat="48.69889" lon="1.73506">
        <ele>177</ele>
        <time>2012-03-25T10:57:01.000Z</time>
      </trkpt>
      <trkpt lat="48.69888" lon="1.73503">
        <ele>177</ele>
        <time>2012-03-25T10:57:03.000Z</time>
      </trkpt>
      <trkpt lat="48.69882" lon="1.73495">
        <ele>177.39999389648</ele>
        <time>2012-03-25T10:57:10.000Z</time>
      </trkpt>
      <trkpt lat="48.6988" lon="1.73489">
        <ele>177.60000610352</ele>
        <time>2012-03-25T10:57:14.000Z</time>
      </trkpt>
      <trkpt lat="48.69879" lon="1.73478">
        <ele>177.80000305176</ele>
        <time>2012-03-25T10:57:22.000Z</time>
      </trkpt>
      <trkpt lat="48.69871" lon="1.73472">
        <ele>178.19999694824</ele>
        <time>2012-03-25T10:57:47.000Z</time>
      </trkpt>
      <trkpt lat="48.69868" lon="1.73476">
        <ele>178.19999694824</ele>
        <time>2012-03-25T10:57:49.000Z</time>
      </trkpt>
      <trkpt lat="48.69866" lon="1.73483">
        <ele>178</ele>
        <time>2012-03-25T10:57:55.000Z</time>
      </trkpt>
      <trkpt lat="48.69859" lon="1.73491">
        <ele>178.19999694824</ele>
        <time>2012-03-25T10:58:02.000Z</time>
      </trkpt>
      <trkpt lat="48.69858" lon="1.73493">
        <ele>178.19999694824</ele>
        <time>2012-03-25T10:58:03.000Z</time>
      </trkpt>
      <trkpt lat="48.69851" lon="1.73508">
        <ele>178.39999389648</ele>
        <time>2012-03-25T10:58:12.000Z</time>
      </trkpt>
      <trkpt lat="48.69844" lon="1.73519">
        <ele>178.60000610352</ele>
        <time>2012-03-25T10:58:19.000Z</time>
      </trkpt>
      <trkpt lat="48.69842" lon="1.73523">
        <ele>178.60000610352</ele>
        <time>2012-03-25T10:58:21.000Z</time>
      </trkpt>
      <trkpt lat="48.69838" lon="1.7353">
        <ele>178.80000305176</ele>
        <time>2012-03-25T10:58:26.000Z</time>
      </trkpt>
      <trkpt lat="48.69832" lon="1.73548">
        <ele>179</ele>
        <time>2012-03-25T10:58:32.000Z</time>
      </trkpt>
      <trkpt lat="48.69823" lon="1.73564">
        <ele>179</ele>
        <time>2012-03-25T10:58:39.000Z</time>
      </trkpt>
      <trkpt lat="48.69817" lon="1.73574">
        <ele>179</ele>
        <time>2012-03-25T10:58:45.000Z</time>
      </trkpt>
      <trkpt lat="48.69811" lon="1.73586">
        <ele>179</ele>
        <time>2012-03-25T10:58:52.000Z</time>
      </trkpt>
      <trkpt lat="48.69803" lon="1.73601">
        <ele>179</ele>
        <time>2012-03-25T10:59:00.000Z</time>
      </trkpt>
      <trkpt lat="48.69799" lon="1.73606">
        <ele>179.19999694824</ele>
        <time>2012-03-25T10:59:04.000Z</time>
      </trkpt>
      <trkpt lat="48.69792" lon="1.73621">
        <ele>179.19999694824</ele>
        <time>2012-03-25T10:59:11.000Z</time>
      </trkpt>
      <trkpt lat="48.69789" lon="1.73629">
        <ele>179.19999694824</ele>
        <time>2012-03-25T10:59:15.000Z</time>
      </trkpt>
      <trkpt lat="48.69781" lon="1.73646">
        <ele>179.39999389648</ele>
        <time>2012-03-25T10:59:24.000Z</time>
      </trkpt>
      <trkpt lat="48.69778" lon="1.73651">
        <ele>179.60000610352</ele>
        <time>2012-03-25T10:59:27.000Z</time>
      </trkpt>
      <trkpt lat="48.69772" lon="1.73661">
        <ele>179.60000610352</ele>
        <time>2012-03-25T10:59:33.000Z</time>
      </trkpt>
      <trkpt lat="48.69765" lon="1.73667">
        <ele>179.80000305176</ele>
        <time>2012-03-25T10:59:39.000Z</time>
      </trkpt>
      <trkpt lat="48.6976" lon="1.73673">
        <ele>179.60000610352</ele>
        <time>2012-03-25T10:59:44.000Z</time>
      </trkpt>
      <trkpt lat="48.69747" lon="1.7368">
        <ele>179.60000610352</ele>
        <time>2012-03-25T10:59:52.000Z</time>
      </trkpt>
      <trkpt lat="48.69738" lon="1.73678">
        <ele>179.60000610352</ele>
        <time>2012-03-25T10:59:59.000Z</time>
      </trkpt>
      <trkpt lat="48.69731" lon="1.73678">
        <ele>179.60000610352</ele>
        <time>2012-03-25T11:00:04.000Z</time>
      </trkpt>
      <trkpt lat="48.69725" lon="1.7368">
        <ele>179.60000610352</ele>
        <time>2012-03-25T11:00:11.000Z</time>
      </trkpt>
      <trkpt lat="48.69717" lon="1.73678">
        <ele>179.60000610352</ele>
        <time>2012-03-25T11:00:18.000Z</time>
      </trkpt>
      <trkpt lat="48.69706" lon="1.7368">
        <ele>179.60000610352</ele>
        <time>2012-03-25T11:00:26.000Z</time>
      </trkpt>
      <trkpt lat="48.69697" lon="1.73679">
        <ele>179.80000305176</ele>
        <time>2012-03-25T11:00:33.000Z</time>
      </trkpt>
      <trkpt lat="48.69694" lon="1.73679">
        <ele>179.80000305176</ele>
        <time>2012-03-25T11:00:37.000Z</time>
      </trkpt>
      <trkpt lat="48.69687" lon="1.73677">
        <ele>179.80000305176</ele>
        <time>2012-03-25T11:00:43.000Z</time>
      </trkpt>
      <trkpt lat="48.69678" lon="1.73677">
        <ele>179.80000305176</ele>
        <time>2012-03-25T11:00:51.000Z</time>
      </trkpt>
      <trkpt lat="48.69669" lon="1.73677">
        <ele>179.80000305176</ele>
        <time>2012-03-25T11:00:59.000Z</time>
      </trkpt>
      <trkpt lat="48.69659" lon="1.73676">
        <ele>180</ele>
        <time>2012-03-25T11:01:07.000Z</time>
      </trkpt>
      <trkpt lat="48.69649" lon="1.73676">
        <ele>180</ele>
        <time>2012-03-25T11:01:16.000Z</time>
      </trkpt>
      <trkpt lat="48.69641" lon="1.73673">
        <ele>180</ele>
        <time>2012-03-25T11:01:24.000Z</time>
      </trkpt>
      <trkpt lat="48.69633" lon="1.7367">
        <ele>180</ele>
        <time>2012-03-25T11:01:30.000Z</time>
      </trkpt>
      <trkpt lat="48.69629" lon="1.73664">
        <ele>180</ele>
        <time>2012-03-25T11:01:36.000Z</time>
      </trkpt>
      <trkpt lat="48.69618" lon="1.73663">
        <ele>180</ele>
        <time>2012-03-25T11:01:45.000Z</time>
      </trkpt>
      <trkpt lat="48.69612" lon="1.73662">
        <ele>180</ele>
        <time>2012-03-25T11:01:50.000Z</time>
      </trkpt>
      <trkpt lat="48.69601" lon="1.73661">
        <ele>180.19999694824</ele>
        <time>2012-03-25T11:01:59.000Z</time>
      </trkpt>
      <trkpt lat="48.69591" lon="1.73659">
        <ele>180.19999694824</ele>
        <time>2012-03-25T11:02:07.000Z</time>
      </trkpt>
      <trkpt lat="48.69581" lon="1.73657">
        <ele>180</ele>
        <time>2012-03-25T11:02:15.000Z</time>
      </trkpt>
      <trkpt lat="48.69572" lon="1.73658">
        <ele>179.39999389648</ele>
        <time>2012-03-25T11:02:23.000Z</time>
      </trkpt>
      <trkpt lat="48.69562" lon="1.73656">
        <ele>178.80000305176</ele>
        <time>2012-03-25T11:02:31.000Z</time>
      </trkpt>
      <trkpt lat="48.69561" lon="1.73655">
        <ele>178.60000610352</ele>
        <time>2012-03-25T11:02:32.000Z</time>
      </trkpt>
      <trkpt lat="48.69554" lon="1.73656">
        <ele>178</ele>
        <time>2012-03-25T11:02:37.000Z</time>
      </trkpt>
      <trkpt lat="48.69539" lon="1.73657">
        <ele>177</ele>
        <time>2012-03-25T11:02:48.000Z</time>
      </trkpt>
      <trkpt lat="48.69527" lon="1.73655">
        <ele>176.19999694824</ele>
        <time>2012-03-25T11:02:57.000Z</time>
      </trkpt>
      <trkpt lat="48.69515" lon="1.73653">
        <ele>175.19999694824</ele>
        <time>2012-03-25T11:03:06.000Z</time>
      </trkpt>
      <trkpt lat="48.69504" lon="1.73654">
        <ele>174.39999389648</ele>
        <time>2012-03-25T11:03:13.000Z</time>
      </trkpt>
      <trkpt lat="48.69494" lon="1.73648">
        <ele>174</ele>
        <time>2012-03-25T11:03:21.000Z</time>
      </trkpt>
      <trkpt lat="48.69484" lon="1.73648">
        <ele>173.60000610352</ele>
        <time>2012-03-25T11:03:29.000Z</time>
      </trkpt>
      <trkpt lat="48.69475" lon="1.73647">
        <ele>173.19999694824</ele>
        <time>2012-03-25T11:03:35.000Z</time>
      </trkpt>
      <trkpt lat="48.69468" lon="1.73646">
        <ele>173</ele>
        <time>2012-03-25T11:03:41.000Z</time>
      </trkpt>
      <trkpt lat="48.69456" lon="1.73645">
        <ele>172.60000610352</ele>
        <time>2012-03-25T11:03:49.000Z</time>
      </trkpt>
      <trkpt lat="48.69453" lon="1.73645">
        <ele>172.39999389648</ele>
        <time>2012-03-25T11:03:51.000Z</time>
      </trkpt>
      <trkpt lat="48.69444" lon="1.73646">
        <ele>172</ele>
        <time>2012-03-25T11:03:57.000Z</time>
      </trkpt>
      <trkpt lat="48.69432" lon="1.73644">
        <ele>171.60000610352</ele>
        <time>2012-03-25T11:04:05.000Z</time>
      </trkpt>
      <trkpt lat="48.69422" lon="1.73642">
        <ele>171.19999694824</ele>
        <time>2012-03-25T11:04:12.000Z</time>
      </trkpt>
      <trkpt lat="48.69409" lon="1.73641">
        <ele>171.19999694824</ele>
        <time>2012-03-25T11:04:21.000Z</time>
      </trkpt>
      <trkpt lat="48.694" lon="1.7364">
        <ele>171.39999389648</ele>
        <time>2012-03-25T11:04:28.000Z</time>
      </trkpt>
      <trkpt lat="48.69389" lon="1.73641">
        <ele>171.39999389648</ele>
        <time>2012-03-25T11:04:35.000Z</time>
      </trkpt>
      <trkpt lat="48.69377" lon="1.73642">
        <ele>171.80000305176</ele>
        <time>2012-03-25T11:04:44.000Z</time>
      </trkpt>
      <trkpt lat="48.69366" lon="1.73642">
        <ele>172</ele>
        <time>2012-03-25T11:04:52.000Z</time>
      </trkpt>
      <trkpt lat="48.69355" lon="1.7364">
        <ele>172.19999694824</ele>
        <time>2012-03-25T11:05:00.000Z</time>
      </trkpt>
      <trkpt lat="48.69343" lon="1.73637">
        <ele>172.60000610352</ele>
        <time>2012-03-25T11:05:09.000Z</time>
      </trkpt>
      <trkpt lat="48.69331" lon="1.73636">
        <ele>173</ele>
        <time>2012-03-25T11:05:18.000Z</time>
      </trkpt>
      <trkpt lat="48.69328" lon="1.73635">
        <ele>173</ele>
        <time>2012-03-25T11:05:21.000Z</time>
      </trkpt>
      <trkpt lat="48.69319" lon="1.73638">
        <ele>173.19999694824</ele>
        <time>2012-03-25T11:05:27.000Z</time>
      </trkpt>
      <trkpt lat="48.69315" lon="1.73637">
        <ele>173.39999389648</ele>
        <time>2012-03-25T11:05:30.000Z</time>
      </trkpt>
      <trkpt lat="48.69304" lon="1.73636">
        <ele>174</ele>
        <time>2012-03-25T11:05:39.000Z</time>
      </trkpt>
      <trkpt lat="48.69294" lon="1.73635">
        <ele>174.60000610352</ele>
        <time>2012-03-25T11:05:46.000Z</time>
      </trkpt>
      <trkpt lat="48.69288" lon="1.73631">
        <ele>175</ele>
        <time>2012-03-25T11:05:51.000Z</time>
      </trkpt>
      <trkpt lat="48.69285" lon="1.73631">
        <ele>175.19999694824</ele>
        <time>2012-03-25T11:05:53.000Z</time>
      </trkpt>
      <trkpt lat="48.69282" lon="1.73631">
        <ele>175.19999694824</ele>
        <time>2012-03-25T11:05:55.000Z</time>
      </trkpt>
      <trkpt lat="48.69274" lon="1.73629">
        <ele>175.80000305176</ele>
        <time>2012-03-25T11:06:02.000Z</time>
      </trkpt>
      <trkpt lat="48.69266" lon="1.73629">
        <ele>176</ele>
        <time>2012-03-25T11:06:08.000Z</time>
      </trkpt>
      <trkpt lat="48.69262" lon="1.73627">
        <ele>176.39999389648</ele>
        <time>2012-03-25T11:06:12.000Z</time>
      </trkpt>
      <trkpt lat="48.69249" lon="1.73627">
        <ele>176.80000305176</ele>
        <time>2012-03-25T11:06:21.000Z</time>
      </trkpt>
      <trkpt lat="48.6924" lon="1.73627">
        <ele>177.19999694824</ele>
        <time>2012-03-25T11:06:28.000Z</time>
      </trkpt>
      <trkpt lat="48.69232" lon="1.73625">
        <ele>177.60000610352</ele>
        <time>2012-03-25T11:06:34.000Z</time>
      </trkpt>
      <trkpt lat="48.69221" lon="1.73624">
        <ele>178</ele>
        <time>2012-03-25T11:06:43.000Z</time>
      </trkpt>
      <trkpt lat="48.69208" lon="1.73622">
        <ele>178.39999389648</ele>
        <time>2012-03-25T11:06:54.000Z</time>
      </trkpt>
      <trkpt lat="48.69198" lon="1.7362">
        <ele>178.80000305176</ele>
        <time>2012-03-25T11:07:03.000Z</time>
      </trkpt>
      <trkpt lat="48.69189" lon="1.73619">
        <ele>179.19999694824</ele>
        <time>2012-03-25T11:07:10.000Z</time>
      </trkpt>
      <trkpt lat="48.69187" lon="1.73618">
        <ele>179.19999694824</ele>
        <time>2012-03-25T11:07:12.000Z</time>
      </trkpt>
      <trkpt lat="48.6918" lon="1.73618">
        <ele>179.39999389648</ele>
        <time>2012-03-25T11:07:17.000Z</time>
      </trkpt>
      <trkpt lat="48.6917" lon="1.73615">
        <ele>179.80000305176</ele>
        <time>2012-03-25T11:07:24.000Z</time>
      </trkpt>
      <trkpt lat="48.69164" lon="1.73613">
        <ele>179.80000305176</ele>
        <time>2012-03-25T11:07:28.000Z</time>
      </trkpt>
      <trkpt lat="48.69152" lon="1.73614">
        <ele>179.19999694824</ele>
        <time>2012-03-25T11:07:36.000Z</time>
      </trkpt>
      <trkpt lat="48.69142" lon="1.73616">
        <ele>178.60000610352</ele>
        <time>2012-03-25T11:07:42.000Z</time>
      </trkpt>
      <trkpt lat="48.69131" lon="1.73614">
        <ele>178</ele>
        <time>2012-03-25T11:07:50.000Z</time>
      </trkpt>
      <trkpt lat="48.69124" lon="1.73615">
        <ele>177.60000610352</ele>
        <time>2012-03-25T11:07:55.000Z</time>
      </trkpt>
      <trkpt lat="48.69112" lon="1.73614">
        <ele>177</ele>
        <time>2012-03-25T11:08:03.000Z</time>
      </trkpt>
      <trkpt lat="48.69101" lon="1.73613">
        <ele>176.60000610352</ele>
        <time>2012-03-25T11:08:10.000Z</time>
      </trkpt>
      <trkpt lat="48.69091" lon="1.7361">
        <ele>176</ele>
        <time>2012-03-25T11:08:17.000Z</time>
      </trkpt>
      <trkpt lat="48.69078" lon="1.73605">
        <ele>175.39999389648</ele>
        <time>2012-03-25T11:08:26.000Z</time>
      </trkpt>
      <trkpt lat="48.6907" lon="1.73605">
        <ele>175</ele>
        <time>2012-03-25T11:08:32.000Z</time>
      </trkpt>
      <trkpt lat="48.69069" lon="1.73604">
        <ele>175</ele>
        <time>2012-03-25T11:08:35.000Z</time>
      </trkpt>
      <trkpt lat="48.69059" lon="1.73613">
        <ele>174.39999389648</ele>
        <time>2012-03-25T11:09:13.000Z</time>
      </trkpt>
      <trkpt lat="48.69059" lon="1.73616">
        <ele>174.39999389648</ele>
        <time>2012-03-25T11:09:16.000Z</time>
      </trkpt>
      <trkpt lat="48.69054" lon="1.73609">
        <ele>174.19999694824</ele>
        <time>2012-03-25T11:10:13.000Z</time>
      </trkpt>
      <trkpt lat="48.69044" lon="1.73606">
        <ele>173.80000305176</ele>
        <time>2012-03-25T11:10:20.000Z</time>
      </trkpt>
      <trkpt lat="48.69033" lon="1.73604">
        <ele>173.19999694824</ele>
        <time>2012-03-25T11:10:29.000Z</time>
      </trkpt>
      <trkpt lat="48.69028" lon="1.73603">
        <ele>172.80000305176</ele>
        <time>2012-03-25T11:10:33.000Z</time>
      </trkpt>
      <trkpt lat="48.69016" lon="1.73601">
        <ele>172.19999694824</ele>
        <time>2012-03-25T11:10:42.000Z</time>
      </trkpt>
      <trkpt lat="48.69005" lon="1.73599">
        <ele>171.60000610352</ele>
        <time>2012-03-25T11:10:51.000Z</time>
      </trkpt>
      <trkpt lat="48.68994" lon="1.73597">
        <ele>171.19999694824</ele>
        <time>2012-03-25T11:10:59.000Z</time>
      </trkpt>
      <trkpt lat="48.68986" lon="1.73597">
        <ele>171</ele>
        <time>2012-03-25T11:11:05.000Z</time>
      </trkpt>
      <trkpt lat="48.68976" lon="1.73597">
        <ele>170.80000305176</ele>
        <time>2012-03-25T11:11:11.000Z</time>
      </trkpt>
      <trkpt lat="48.68967" lon="1.73597">
        <ele>170.60000610352</ele>
        <time>2012-03-25T11:11:18.000Z</time>
      </trkpt>
      <trkpt lat="48.68959" lon="1.73597">
        <ele>170.39999389648</ele>
        <time>2012-03-25T11:11:23.000Z</time>
      </trkpt>
      <trkpt lat="48.68943" lon="1.73595">
        <ele>170</ele>
        <time>2012-03-25T11:11:34.000Z</time>
      </trkpt>
      <trkpt lat="48.68932" lon="1.73594">
        <ele>169.60000610352</ele>
        <time>2012-03-25T11:11:42.000Z</time>
      </trkpt>
      <trkpt lat="48.68925" lon="1.73593">
        <ele>169.39999389648</ele>
        <time>2012-03-25T11:11:47.000Z</time>
      </trkpt>
      <trkpt lat="48.68914" lon="1.73593">
        <ele>169.19999694824</ele>
        <time>2012-03-25T11:11:56.000Z</time>
      </trkpt>
      <trkpt lat="48.68903" lon="1.73591">
        <ele>169.39999389648</ele>
        <time>2012-03-25T11:12:04.000Z</time>
      </trkpt>
      <trkpt lat="48.6889" lon="1.7359">
        <ele>169.39999389648</ele>
        <time>2012-03-25T11:12:12.000Z</time>
      </trkpt>
      <trkpt lat="48.6888" lon="1.73587">
        <ele>169.39999389648</ele>
        <time>2012-03-25T11:12:19.000Z</time>
      </trkpt>
      <trkpt lat="48.68868" lon="1.73586">
        <ele>169.60000610352</ele>
        <time>2012-03-25T11:12:27.000Z</time>
      </trkpt>
      <trkpt lat="48.68858" lon="1.73583">
        <ele>169.80000305176</ele>
        <time>2012-03-25T11:12:34.000Z</time>
      </trkpt>
      <trkpt lat="48.68848" lon="1.73582">
        <ele>169.80000305176</ele>
        <time>2012-03-25T11:12:41.000Z</time>
      </trkpt>
      <trkpt lat="48.68845" lon="1.73581">
        <ele>170</ele>
        <time>2012-03-25T11:12:44.000Z</time>
      </trkpt>
      <trkpt lat="48.68845" lon="1.73583">
        <ele>169.80000305176</ele>
        <time>2012-03-25T11:12:47.000Z</time>
      </trkpt>
      <trkpt lat="48.68837" lon="1.73587">
        <ele>170</ele>
        <time>2012-03-25T11:13:06.000Z</time>
      </trkpt>
      <trkpt lat="48.68834" lon="1.73588">
        <ele>170</ele>
        <time>2012-03-25T11:13:07.000Z</time>
      </trkpt>
      <trkpt lat="48.68829" lon="1.73587">
        <ele>170</ele>
        <time>2012-03-25T11:13:12.000Z</time>
      </trkpt>
      <trkpt lat="48.68828" lon="1.73585">
        <ele>170</ele>
        <time>2012-03-25T11:13:13.000Z</time>
      </trkpt>
      <trkpt lat="48.68818" lon="1.73582">
        <ele>170</ele>
        <time>2012-03-25T11:13:21.000Z</time>
      </trkpt>
      <trkpt lat="48.6881" lon="1.73581">
        <ele>170</ele>
        <time>2012-03-25T11:13:27.000Z</time>
      </trkpt>
      <trkpt lat="48.68809" lon="1.73581">
        <ele>170</ele>
        <time>2012-03-25T11:13:28.000Z</time>
      </trkpt>
      <trkpt lat="48.68801" lon="1.73581">
        <ele>170</ele>
        <time>2012-03-25T11:13:34.000Z</time>
      </trkpt>
      <trkpt lat="48.688" lon="1.73581">
        <ele>170</ele>
        <time>2012-03-25T11:13:37.000Z</time>
      </trkpt>
      <trkpt lat="48.68793" lon="1.73579">
        <ele>170</ele>
        <time>2012-03-25T11:14:04.000Z</time>
      </trkpt>
      <trkpt lat="48.68785" lon="1.73578">
        <ele>170</ele>
        <time>2012-03-25T11:14:08.000Z</time>
      </trkpt>
      <trkpt lat="48.68783" lon="1.73578">
        <ele>170</ele>
        <time>2012-03-25T11:14:10.000Z</time>
      </trkpt>
      <trkpt lat="48.68769" lon="1.73575">
        <ele>170</ele>
        <time>2012-03-25T11:14:21.000Z</time>
      </trkpt>
      <trkpt lat="48.6876" lon="1.73573">
        <ele>170</ele>
        <time>2012-03-25T11:14:29.000Z</time>
      </trkpt>
      <trkpt lat="48.68751" lon="1.73572">
        <ele>169.80000305176</ele>
        <time>2012-03-25T11:14:37.000Z</time>
      </trkpt>
      <trkpt lat="48.68746" lon="1.73572">
        <ele>169.60000610352</ele>
        <time>2012-03-25T11:14:42.000Z</time>
      </trkpt>
      <trkpt lat="48.68736" lon="1.7357">
        <ele>169.19999694824</ele>
        <time>2012-03-25T11:14:50.000Z</time>
      </trkpt>
      <trkpt lat="48.68725" lon="1.7357">
        <ele>168.60000610352</ele>
        <time>2012-03-25T11:14:59.000Z</time>
      </trkpt>
      <trkpt lat="48.68716" lon="1.73571">
        <ele>168.19999694824</ele>
        <time>2012-03-25T11:15:07.000Z</time>
      </trkpt>
      <trkpt lat="48.68704" lon="1.73568">
        <ele>167.60000610352</ele>
        <time>2012-03-25T11:15:15.000Z</time>
      </trkpt>
      <trkpt lat="48.68693" lon="1.73567">
        <ele>167</ele>
        <time>2012-03-25T11:15:23.000Z</time>
      </trkpt>
      <trkpt lat="48.6868" lon="1.73564">
        <ele>166.19999694824</ele>
        <time>2012-03-25T11:15:32.000Z</time>
      </trkpt>
      <trkpt lat="48.68671" lon="1.73565">
        <ele>165.80000305176</ele>
        <time>2012-03-25T11:15:39.000Z</time>
      </trkpt>
      <trkpt lat="48.68662" lon="1.73565">
        <ele>165.39999389648</ele>
        <time>2012-03-25T11:15:46.000Z</time>
      </trkpt>
      <trkpt lat="48.68654" lon="1.73563">
        <ele>165</ele>
        <time>2012-03-25T11:15:53.000Z</time>
      </trkpt>
      <trkpt lat="48.68646" lon="1.73561">
        <ele>164.80000305176</ele>
        <time>2012-03-25T11:16:00.000Z</time>
      </trkpt>
      <trkpt lat="48.68644" lon="1.73562">
        <ele>164.60000610352</ele>
        <time>2012-03-25T11:16:01.000Z</time>
      </trkpt>
      <trkpt lat="48.68636" lon="1.73561">
        <ele>164.39999389648</ele>
        <time>2012-03-25T11:16:07.000Z</time>
      </trkpt>
      <trkpt lat="48.68626" lon="1.7356">
        <ele>164</ele>
        <time>2012-03-25T11:16:15.000Z</time>
      </trkpt>
      <trkpt lat="48.68617" lon="1.73561">
        <ele>163.80000305176</ele>
        <time>2012-03-25T11:16:21.000Z</time>
      </trkpt>
      <trkpt lat="48.68607" lon="1.73559">
        <ele>163.39999389648</ele>
        <time>2012-03-25T11:16:28.000Z</time>
      </trkpt>
      <trkpt lat="48.68606" lon="1.73558">
        <ele>163.39999389648</ele>
        <time>2012-03-25T11:16:31.000Z</time>
      </trkpt>
      <trkpt lat="48.68601" lon="1.73559">
        <ele>163.19999694824</ele>
        <time>2012-03-25T11:16:38.000Z</time>
      </trkpt>
      <trkpt lat="48.68599" lon="1.73561">
        <ele>163</ele>
        <time>2012-03-25T11:16:42.000Z</time>
      </trkpt>
      <trkpt lat="48.68599" lon="1.73561">
        <ele>163</ele>
        <time>2012-03-25T11:16:43.000Z</time>
      </trkpt>
      <trkpt lat="48.68597" lon="1.73565">
        <ele>163</ele>
        <time>2012-03-25T11:16:56.000Z</time>
      </trkpt>
      <trkpt lat="48.68597" lon="1.73565">
        <ele>163</ele>
        <time>2012-03-25T11:16:57.000Z</time>
      </trkpt>
      <trkpt lat="48.68598" lon="1.73568">
        <ele>163</ele>
        <time>2012-03-25T11:17:03.000Z</time>
      </trkpt>
      <trkpt lat="48.68597" lon="1.7357">
        <ele>162.80000305176</ele>
        <time>2012-03-25T11:17:09.000Z</time>
      </trkpt>
      <trkpt lat="48.68595" lon="1.73564">
        <ele>162.80000305176</ele>
        <time>2012-03-25T11:17:13.000Z</time>
      </trkpt>
      <trkpt lat="48.68595" lon="1.73563">
        <ele>162.80000305176</ele>
        <time>2012-03-25T11:17:17.000Z</time>
      </trkpt>
      <trkpt lat="48.686" lon="1.73558">
        <ele>163.19999694824</ele>
        <time>2012-03-25T11:17:26.000Z</time>
      </trkpt>
      <trkpt lat="48.68602" lon="1.73555">
        <ele>163.19999694824</ele>
        <time>2012-03-25T11:17:27.000Z</time>
      </trkpt>
      <trkpt lat="48.68603" lon="1.73545">
        <ele>163.39999389648</ele>
        <time>2012-03-25T11:17:33.000Z</time>
      </trkpt>
      <trkpt lat="48.68604" lon="1.73533">
        <ele>163.60000610352</ele>
        <time>2012-03-25T11:17:39.000Z</time>
      </trkpt>
      <trkpt lat="48.68601" lon="1.73522">
        <ele>163.80000305176</ele>
        <time>2012-03-25T11:17:45.000Z</time>
      </trkpt>
      <trkpt lat="48.68599" lon="1.73507">
        <ele>164</ele>
        <time>2012-03-25T11:17:53.000Z</time>
      </trkpt>
      <trkpt lat="48.68598" lon="1.73495">
        <ele>164.19999694824</ele>
        <time>2012-03-25T11:17:59.000Z</time>
      </trkpt>
      <trkpt lat="48.68595" lon="1.73486">
        <ele>164.39999389648</ele>
        <time>2012-03-25T11:18:06.000Z</time>
      </trkpt>
      <trkpt lat="48.68595" lon="1.73478">
        <ele>164.60000610352</ele>
        <time>2012-03-25T11:18:18.000Z</time>
      </trkpt>
      <trkpt lat="48.68592" lon="1.73467">
        <ele>165</ele>
        <time>2012-03-25T11:18:24.000Z</time>
      </trkpt>
      <trkpt lat="48.6859" lon="1.73456">
        <ele>165.39999389648</ele>
        <time>2012-03-25T11:18:31.000Z</time>
      </trkpt>
      <trkpt lat="48.68587" lon="1.73447">
        <ele>165.80000305176</ele>
        <time>2012-03-25T11:18:38.000Z</time>
      </trkpt>
      <trkpt lat="48.68585" lon="1.73434">
        <ele>166.19999694824</ele>
        <time>2012-03-25T11:18:45.000Z</time>
      </trkpt>
      <trkpt lat="48.68582" lon="1.73419">
        <ele>167</ele>
        <time>2012-03-25T11:18:53.000Z</time>
      </trkpt>
      <trkpt lat="48.68579" lon="1.73411">
        <ele>167.19999694824</ele>
        <time>2012-03-25T11:18:58.000Z</time>
      </trkpt>
      <trkpt lat="48.68577" lon="1.73398">
        <ele>167.19999694824</ele>
        <time>2012-03-25T11:19:05.000Z</time>
      </trkpt>
      <trkpt lat="48.68576" lon="1.73384">
        <ele>167.19999694824</ele>
        <time>2012-03-25T11:19:12.000Z</time>
      </trkpt>
      <trkpt lat="48.68574" lon="1.73369">
        <ele>167.39999389648</ele>
        <time>2012-03-25T11:19:19.000Z</time>
      </trkpt>
      <trkpt lat="48.68572" lon="1.73355">
        <ele>167.39999389648</ele>
        <time>2012-03-25T11:19:26.000Z</time>
      </trkpt>
      <trkpt lat="48.68571" lon="1.7334">
        <ele>167.39999389648</ele>
        <time>2012-03-25T11:19:32.000Z</time>
      </trkpt>
      <trkpt lat="48.68569" lon="1.73326">
        <ele>167.19999694824</ele>
        <time>2012-03-25T11:19:39.000Z</time>
      </trkpt>
      <trkpt lat="48.68567" lon="1.7331">
        <ele>167</ele>
        <time>2012-03-25T11:19:47.000Z</time>
      </trkpt>
      <trkpt lat="48.68565" lon="1.73303">
        <ele>167</ele>
        <time>2012-03-25T11:19:51.000Z</time>
      </trkpt>
      <trkpt lat="48.68562" lon="1.73284">
        <ele>166.80000305176</ele>
        <time>2012-03-25T11:20:01.000Z</time>
      </trkpt>
      <trkpt lat="48.68561" lon="1.73265">
        <ele>166.60000610352</ele>
        <time>2012-03-25T11:20:10.000Z</time>
      </trkpt>
      <trkpt lat="48.68559" lon="1.73255">
        <ele>166.39999389648</ele>
        <time>2012-03-25T11:20:16.000Z</time>
      </trkpt>
      <trkpt lat="48.68557" lon="1.73244">
        <ele>166.39999389648</ele>
        <time>2012-03-25T11:20:22.000Z</time>
      </trkpt>
      <trkpt lat="48.68555" lon="1.7323">
        <ele>166.80000305176</ele>
        <time>2012-03-25T11:20:29.000Z</time>
      </trkpt>
      <trkpt lat="48.68555" lon="1.73217">
        <ele>167.19999694824</ele>
        <time>2012-03-25T11:20:36.000Z</time>
      </trkpt>
      <trkpt lat="48.68552" lon="1.73202">
        <ele>167.60000610352</ele>
        <time>2012-03-25T11:20:44.000Z</time>
      </trkpt>
      <trkpt lat="48.68552" lon="1.73188">
        <ele>168</ele>
        <time>2012-03-25T11:20:51.000Z</time>
      </trkpt>
      <trkpt lat="48.68554" lon="1.73175">
        <ele>168.39999389648</ele>
        <time>2012-03-25T11:20:58.000Z</time>
      </trkpt>
      <trkpt lat="48.68555" lon="1.73174">
        <ele>168.39999389648</ele>
        <time>2012-03-25T11:21:01.000Z</time>
      </trkpt>
      <trkpt lat="48.68547" lon="1.7318">
        <ele>168</ele>
        <time>2012-03-25T11:21:19.000Z</time>
      </trkpt>
      <trkpt lat="48.68541" lon="1.73186">
        <ele>167.60000610352</ele>
        <time>2012-03-25T11:21:23.000Z</time>
      </trkpt>
      <trkpt lat="48.68533" lon="1.73199">
        <ele>167.19999694824</ele>
        <time>2012-03-25T11:21:32.000Z</time>
      </trkpt>
      <trkpt lat="48.68528" lon="1.73209">
        <ele>167</ele>
        <time>2012-03-25T11:21:38.000Z</time>
      </trkpt>
      <trkpt lat="48.68524" lon="1.73218">
        <ele>166.80000305176</ele>
        <time>2012-03-25T11:21:43.000Z</time>
      </trkpt>
      <trkpt lat="48.68514" lon="1.73234">
        <ele>166.80000305176</ele>
        <time>2012-03-25T11:21:53.000Z</time>
      </trkpt>
      <trkpt lat="48.68506" lon="1.73247">
        <ele>167</ele>
        <time>2012-03-25T11:22:02.000Z</time>
      </trkpt>
      <trkpt lat="48.68504" lon="1.73251">
        <ele>167</ele>
        <time>2012-03-25T11:22:04.000Z</time>
      </trkpt>
      <trkpt lat="48.68495" lon="1.73264">
        <ele>167.39999389648</ele>
        <time>2012-03-25T11:22:12.000Z</time>
      </trkpt>
      <trkpt lat="48.68487" lon="1.7328">
        <ele>167.80000305176</ele>
        <time>2012-03-25T11:22:22.000Z</time>
      </trkpt>
      <trkpt lat="48.68482" lon="1.73294">
        <ele>168.19999694824</ele>
        <time>2012-03-25T11:22:30.000Z</time>
      </trkpt>
      <trkpt lat="48.68474" lon="1.73305">
        <ele>168.39999389648</ele>
        <time>2012-03-25T11:22:38.000Z</time>
      </trkpt>
      <trkpt lat="48.68473" lon="1.73307">
        <ele>168.39999389648</ele>
        <time>2012-03-25T11:22:39.000Z</time>
      </trkpt>
      <trkpt lat="48.68468" lon="1.73313">
        <ele>168.39999389648</ele>
        <time>2012-03-25T11:22:45.000Z</time>
      </trkpt>
      <trkpt lat="48.68461" lon="1.73325">
        <ele>168.39999389648</ele>
        <time>2012-03-25T11:22:52.000Z</time>
      </trkpt>
      <trkpt lat="48.68453" lon="1.73339">
        <ele>168.60000610352</ele>
        <time>2012-03-25T11:23:00.000Z</time>
      </trkpt>
      <trkpt lat="48.68448" lon="1.73347">
        <ele>168.80000305176</ele>
        <time>2012-03-25T11:23:06.000Z</time>
      </trkpt>
      <trkpt lat="48.68447" lon="1.73349">
        <ele>168.80000305176</ele>
        <time>2012-03-25T11:23:08.000Z</time>
      </trkpt>
      <trkpt lat="48.68446" lon="1.7335">
        <ele>168.80000305176</ele>
        <time>2012-03-25T11:23:11.000Z</time>
      </trkpt>
      <trkpt lat="48.68443" lon="1.73356">
        <ele>169</ele>
        <time>2012-03-25T11:23:22.000Z</time>
      </trkpt>
      <trkpt lat="48.68434" lon="1.7337">
        <ele>169.39999389648</ele>
        <time>2012-03-25T11:23:30.000Z</time>
      </trkpt>
      <trkpt lat="48.68426" lon="1.73378">
        <ele>169.60000610352</ele>
        <time>2012-03-25T11:23:37.000Z</time>
      </trkpt>
      <trkpt lat="48.68424" lon="1.73382">
        <ele>169.80000305176</ele>
        <time>2012-03-25T11:23:40.000Z</time>
      </trkpt>
      <trkpt lat="48.68423" lon="1.73388">
        <ele>170</ele>
        <time>2012-03-25T11:23:44.000Z</time>
      </trkpt>
      <trkpt lat="48.68415" lon="1.73399">
        <ele>170.39999389648</ele>
        <time>2012-03-25T11:23:52.000Z</time>
      </trkpt>
      <trkpt lat="48.68415" lon="1.73401">
        <ele>170.39999389648</ele>
        <time>2012-03-25T11:23:53.000Z</time>
      </trkpt>
      <trkpt lat="48.68405" lon="1.73412">
        <ele>170.80000305176</ele>
        <time>2012-03-25T11:24:03.000Z</time>
      </trkpt>
      <trkpt lat="48.68399" lon="1.73425">
        <ele>171</ele>
        <time>2012-03-25T11:24:11.000Z</time>
      </trkpt>
      <trkpt lat="48.68392" lon="1.73433">
        <ele>171</ele>
        <time>2012-03-25T11:24:18.000Z</time>
      </trkpt>
      <trkpt lat="48.68388" lon="1.7344">
        <ele>171</ele>
        <time>2012-03-25T11:24:23.000Z</time>
      </trkpt>
      <trkpt lat="48.68383" lon="1.7345">
        <ele>171</ele>
        <time>2012-03-25T11:24:30.000Z</time>
      </trkpt>
      <trkpt lat="48.68376" lon="1.73465">
        <ele>171</ele>
        <time>2012-03-25T11:24:39.000Z</time>
      </trkpt>
      <trkpt lat="48.68372" lon="1.73471">
        <ele>171</ele>
        <time>2012-03-25T11:24:43.000Z</time>
      </trkpt>
      <trkpt lat="48.68368" lon="1.73478">
        <ele>171</ele>
        <time>2012-03-25T11:24:48.000Z</time>
      </trkpt>
      <trkpt lat="48.68362" lon="1.73489">
        <ele>171</ele>
        <time>2012-03-25T11:24:56.000Z</time>
      </trkpt>
      <trkpt lat="48.68357" lon="1.73498">
        <ele>171</ele>
        <time>2012-03-25T11:25:02.000Z</time>
      </trkpt>
      <trkpt lat="48.68349" lon="1.73514">
        <ele>170.60000610352</ele>
        <time>2012-03-25T11:25:11.000Z</time>
      </trkpt>
      <trkpt lat="48.68347" lon="1.73519">
        <ele>170.60000610352</ele>
        <time>2012-03-25T11:25:13.000Z</time>
      </trkpt>
      <trkpt lat="48.68342" lon="1.73522">
        <ele>170.60000610352</ele>
        <time>2012-03-25T11:25:25.000Z</time>
      </trkpt>
      <trkpt lat="48.6834" lon="1.73525">
        <ele>170.39999389648</ele>
        <time>2012-03-25T11:25:29.000Z</time>
      </trkpt>
      <trkpt lat="48.6834" lon="1.73526">
        <ele>170.39999389648</ele>
        <time>2012-03-25T11:25:30.000Z</time>
      </trkpt>
      <trkpt lat="48.68337" lon="1.73541">
        <ele>170</ele>
        <time>2012-03-25T11:25:38.000Z</time>
      </trkpt>
      <trkpt lat="48.68337" lon="1.73542">
        <ele>170</ele>
        <time>2012-03-25T11:25:41.000Z</time>
      </trkpt>
      <trkpt lat="48.68329" lon="1.7355">
        <ele>170</ele>
        <time>2012-03-25T11:25:58.000Z</time>
      </trkpt>
      <trkpt lat="48.68326" lon="1.73566">
        <ele>169.60000610352</ele>
        <time>2012-03-25T11:26:04.000Z</time>
      </trkpt>
      <trkpt lat="48.68322" lon="1.73581">
        <ele>169.39999389648</ele>
        <time>2012-03-25T11:26:11.000Z</time>
      </trkpt>
      <trkpt lat="48.68321" lon="1.73585">
        <ele>169.39999389648</ele>
        <time>2012-03-25T11:26:13.000Z</time>
      </trkpt>
      <trkpt lat="48.6832" lon="1.73595">
        <ele>169.39999389648</ele>
        <time>2012-03-25T11:26:18.000Z</time>
      </trkpt>
      <trkpt lat="48.68318" lon="1.73602">
        <ele>169.60000610352</ele>
        <time>2012-03-25T11:26:22.000Z</time>
      </trkpt>
      <trkpt lat="48.68312" lon="1.73616">
        <ele>169.80000305176</ele>
        <time>2012-03-25T11:26:29.000Z</time>
      </trkpt>
      <trkpt lat="48.68308" lon="1.7363">
        <ele>170</ele>
        <time>2012-03-25T11:26:37.000Z</time>
      </trkpt>
      <trkpt lat="48.68304" lon="1.73642">
        <ele>170</ele>
        <time>2012-03-25T11:26:43.000Z</time>
      </trkpt>
      <trkpt lat="48.68301" lon="1.73655">
        <ele>170.19999694824</ele>
        <time>2012-03-25T11:26:50.000Z</time>
      </trkpt>
      <trkpt lat="48.68296" lon="1.73671">
        <ele>170.39999389648</ele>
        <time>2012-03-25T11:26:58.000Z</time>
      </trkpt>
      <trkpt lat="48.68291" lon="1.73688">
        <ele>170.60000610352</ele>
        <time>2012-03-25T11:27:07.000Z</time>
      </trkpt>
      <trkpt lat="48.68289" lon="1.73693">
        <ele>170.60000610352</ele>
        <time>2012-03-25T11:27:10.000Z</time>
      </trkpt>
      <trkpt lat="48.68284" lon="1.73708">
        <ele>170.60000610352</ele>
        <time>2012-03-25T11:27:19.000Z</time>
      </trkpt>
      <trkpt lat="48.68283" lon="1.7371">
        <ele>170.60000610352</ele>
        <time>2012-03-25T11:27:20.000Z</time>
      </trkpt>
      <trkpt lat="48.68281" lon="1.73724">
        <ele>170.80000305176</ele>
        <time>2012-03-25T11:27:27.000Z</time>
      </trkpt>
      <trkpt lat="48.68277" lon="1.7374">
        <ele>170.80000305176</ele>
        <time>2012-03-25T11:27:35.000Z</time>
      </trkpt>
      <trkpt lat="48.68269" lon="1.73759">
        <ele>170.60000610352</ele>
        <time>2012-03-25T11:27:45.000Z</time>
      </trkpt>
      <trkpt lat="48.68263" lon="1.73768">
        <ele>170.60000610352</ele>
        <time>2012-03-25T11:27:51.000Z</time>
      </trkpt>
      <trkpt lat="48.68258" lon="1.73779">
        <ele>170.39999389648</ele>
        <time>2012-03-25T11:27:58.000Z</time>
      </trkpt>
      <trkpt lat="48.68253" lon="1.73795">
        <ele>170</ele>
        <time>2012-03-25T11:28:06.000Z</time>
      </trkpt>
      <trkpt lat="48.68249" lon="1.73811">
        <ele>169.60000610352</ele>
        <time>2012-03-25T11:28:14.000Z</time>
      </trkpt>
      <trkpt lat="48.68245" lon="1.73827">
        <ele>169.19999694824</ele>
        <time>2012-03-25T11:28:21.000Z</time>
      </trkpt>
      <trkpt lat="48.68243" lon="1.73838">
        <ele>168.80000305176</ele>
        <time>2012-03-25T11:28:27.000Z</time>
      </trkpt>
      <trkpt lat="48.68242" lon="1.73848">
        <ele>168.39999389648</ele>
        <time>2012-03-25T11:28:32.000Z</time>
      </trkpt>
      <trkpt lat="48.6824" lon="1.73857">
        <ele>168.19999694824</ele>
        <time>2012-03-25T11:28:37.000Z</time>
      </trkpt>
      <trkpt lat="48.68234" lon="1.73875">
        <ele>167.60000610352</ele>
        <time>2012-03-25T11:28:46.000Z</time>
      </trkpt>
      <trkpt lat="48.68232" lon="1.73887">
        <ele>167.19999694824</ele>
        <time>2012-03-25T11:28:52.000Z</time>
      </trkpt>
      <trkpt lat="48.68229" lon="1.73899">
        <ele>166.80000305176</ele>
        <time>2012-03-25T11:28:58.000Z</time>
      </trkpt>
      <trkpt lat="48.68227" lon="1.73909">
        <ele>166.60000610352</ele>
        <time>2012-03-25T11:29:03.000Z</time>
      </trkpt>
      <trkpt lat="48.68224" lon="1.7392">
        <ele>166.19999694824</ele>
        <time>2012-03-25T11:29:08.000Z</time>
      </trkpt>
      <trkpt lat="48.68221" lon="1.73931">
        <ele>166.19999694824</ele>
        <time>2012-03-25T11:29:14.000Z</time>
      </trkpt>
      <trkpt lat="48.68219" lon="1.73945">
        <ele>166.19999694824</ele>
        <time>2012-03-25T11:29:21.000Z</time>
      </trkpt>
      <trkpt lat="48.68218" lon="1.73958">
        <ele>166</ele>
        <time>2012-03-25T11:29:26.000Z</time>
      </trkpt>
      <trkpt lat="48.68217" lon="1.73971">
        <ele>166</ele>
        <time>2012-03-25T11:29:32.000Z</time>
      </trkpt>
      <trkpt lat="48.68217" lon="1.73973">
        <ele>166</ele>
        <time>2012-03-25T11:29:33.000Z</time>
      </trkpt>
      <trkpt lat="48.68218" lon="1.73984">
        <ele>165.80000305176</ele>
        <time>2012-03-25T11:29:39.000Z</time>
      </trkpt>
      <trkpt lat="48.6822" lon="1.74001">
        <ele>165.80000305176</ele>
        <time>2012-03-25T11:29:46.000Z</time>
      </trkpt>
      <trkpt lat="48.68221" lon="1.74012">
        <ele>165.60000610352</ele>
        <time>2012-03-25T11:29:51.000Z</time>
      </trkpt>
      <trkpt lat="48.68222" lon="1.74021">
        <ele>165.39999389648</ele>
        <time>2012-03-25T11:29:55.000Z</time>
      </trkpt>
      <trkpt lat="48.68227" lon="1.74039">
        <ele>165</ele>
        <time>2012-03-25T11:30:04.000Z</time>
      </trkpt>
      <trkpt lat="48.68229" lon="1.7405">
        <ele>164.80000305176</ele>
        <time>2012-03-25T11:30:10.000Z</time>
      </trkpt>
      <trkpt lat="48.68232" lon="1.74059">
        <ele>164.80000305176</ele>
        <time>2012-03-25T11:30:14.000Z</time>
      </trkpt>
      <trkpt lat="48.68232" lon="1.74064">
        <ele>164.60000610352</ele>
        <time>2012-03-25T11:30:16.000Z</time>
      </trkpt>
      <trkpt lat="48.68235" lon="1.74084">
        <ele>164.39999389648</ele>
        <time>2012-03-25T11:30:24.000Z</time>
      </trkpt>
      <trkpt lat="48.68235" lon="1.74092">
        <ele>164.19999694824</ele>
        <time>2012-03-25T11:30:28.000Z</time>
      </trkpt>
      <trkpt lat="48.68237" lon="1.74106">
        <ele>163.80000305176</ele>
        <time>2012-03-25T11:30:35.000Z</time>
      </trkpt>
      <trkpt lat="48.68241" lon="1.74117">
        <ele>163.39999389648</ele>
        <time>2012-03-25T11:30:41.000Z</time>
      </trkpt>
      <trkpt lat="48.68244" lon="1.74132">
        <ele>163</ele>
        <time>2012-03-25T11:30:47.000Z</time>
      </trkpt>
      <trkpt lat="48.68246" lon="1.7414">
        <ele>162.80000305176</ele>
        <time>2012-03-25T11:30:50.000Z</time>
      </trkpt>
      <trkpt lat="48.6825" lon="1.74158">
        <ele>162.19999694824</ele>
        <time>2012-03-25T11:30:58.000Z</time>
      </trkpt>
      <trkpt lat="48.68252" lon="1.74171">
        <ele>162</ele>
        <time>2012-03-25T11:31:04.000Z</time>
      </trkpt>
      <trkpt lat="48.68254" lon="1.74184">
        <ele>162</ele>
        <time>2012-03-25T11:31:10.000Z</time>
      </trkpt>
      <trkpt lat="48.68255" lon="1.74198">
        <ele>162</ele>
        <time>2012-03-25T11:31:16.000Z</time>
      </trkpt>
      <trkpt lat="48.68257" lon="1.7421">
        <ele>161.80000305176</ele>
        <time>2012-03-25T11:31:21.000Z</time>
      </trkpt>
      <trkpt lat="48.68263" lon="1.74223">
        <ele>161.80000305176</ele>
        <time>2012-03-25T11:31:28.000Z</time>
      </trkpt>
      <trkpt lat="48.68264" lon="1.7423">
        <ele>161.80000305176</ele>
        <time>2012-03-25T11:31:31.000Z</time>
      </trkpt>
      <trkpt lat="48.68264" lon="1.74243">
        <ele>161.60000610352</ele>
        <time>2012-03-25T11:31:38.000Z</time>
      </trkpt>
      <trkpt lat="48.68268" lon="1.74254">
        <ele>161.60000610352</ele>
        <time>2012-03-25T11:31:44.000Z</time>
      </trkpt>
      <trkpt lat="48.68269" lon="1.74266">
        <ele>161.80000305176</ele>
        <time>2012-03-25T11:31:49.000Z</time>
      </trkpt>
      <trkpt lat="48.68273" lon="1.74279">
        <ele>162</ele>
        <time>2012-03-25T11:31:55.000Z</time>
      </trkpt>
      <trkpt lat="48.68276" lon="1.74293">
        <ele>162.19999694824</ele>
        <time>2012-03-25T11:32:01.000Z</time>
      </trkpt>
      <trkpt lat="48.68277" lon="1.74297">
        <ele>162.39999389648</ele>
        <time>2012-03-25T11:32:03.000Z</time>
      </trkpt>
      <trkpt lat="48.68277" lon="1.74301">
        <ele>162.39999389648</ele>
        <time>2012-03-25T11:32:05.000Z</time>
      </trkpt>
      <trkpt lat="48.68278" lon="1.74312">
        <ele>162.60000610352</ele>
        <time>2012-03-25T11:32:10.000Z</time>
      </trkpt>
      <trkpt lat="48.68279" lon="1.74324">
        <ele>162.80000305176</ele>
        <time>2012-03-25T11:32:15.000Z</time>
      </trkpt>
      <trkpt lat="48.6828" lon="1.74328">
        <ele>162.80000305176</ele>
        <time>2012-03-25T11:32:17.000Z</time>
      </trkpt>
      <trkpt lat="48.68282" lon="1.74344">
        <ele>162.80000305176</ele>
        <time>2012-03-25T11:32:23.000Z</time>
      </trkpt>
      <trkpt lat="48.68282" lon="1.74353">
        <ele>162.80000305176</ele>
        <time>2012-03-25T11:32:27.000Z</time>
      </trkpt>
      <trkpt lat="48.68285" lon="1.74374">
        <ele>162.80000305176</ele>
        <time>2012-03-25T11:32:36.000Z</time>
      </trkpt>
      <trkpt lat="48.68287" lon="1.74388">
        <ele>162.60000610352</ele>
        <time>2012-03-25T11:32:42.000Z</time>
      </trkpt>
      <trkpt lat="48.6829" lon="1.74401">
        <ele>162.60000610352</ele>
        <time>2012-03-25T11:32:48.000Z</time>
      </trkpt>
      <trkpt lat="48.68294" lon="1.74417">
        <ele>162.39999389648</ele>
        <time>2012-03-25T11:32:56.000Z</time>
      </trkpt>
      <trkpt lat="48.68297" lon="1.74429">
        <ele>162.19999694824</ele>
        <time>2012-03-25T11:33:01.000Z</time>
      </trkpt>
      <trkpt lat="48.68299" lon="1.7444">
        <ele>161.80000305176</ele>
        <time>2012-03-25T11:33:06.000Z</time>
      </trkpt>
      <trkpt lat="48.68303" lon="1.74457">
        <ele>161.39999389648</ele>
        <time>2012-03-25T11:33:14.000Z</time>
      </trkpt>
      <trkpt lat="48.68303" lon="1.7446">
        <ele>161.39999389648</ele>
        <time>2012-03-25T11:33:15.000Z</time>
      </trkpt>
      <trkpt lat="48.68303" lon="1.74472">
        <ele>161</ele>
        <time>2012-03-25T11:33:21.000Z</time>
      </trkpt>
      <trkpt lat="48.68302" lon="1.74481">
        <ele>161</ele>
        <time>2012-03-25T11:33:25.000Z</time>
      </trkpt>
      <trkpt lat="48.68303" lon="1.74497">
        <ele>160.60000610352</ele>
        <time>2012-03-25T11:33:33.000Z</time>
      </trkpt>
      <trkpt lat="48.68304" lon="1.745">
        <ele>160.39999389648</ele>
        <time>2012-03-25T11:33:35.000Z</time>
      </trkpt>
      <trkpt lat="48.68306" lon="1.74511">
        <ele>160</ele>
        <time>2012-03-25T11:33:41.000Z</time>
      </trkpt>
      <trkpt lat="48.68314" lon="1.74522">
        <ele>159</ele>
        <time>2012-03-25T11:33:47.000Z</time>
      </trkpt>
      <trkpt lat="48.68322" lon="1.74529">
        <ele>158</ele>
        <time>2012-03-25T11:33:52.000Z</time>
      </trkpt>
      <trkpt lat="48.6833" lon="1.74539">
        <ele>157</ele>
        <time>2012-03-25T11:33:59.000Z</time>
      </trkpt>
      <trkpt lat="48.68333" lon="1.74544">
        <ele>156.39999389648</ele>
        <time>2012-03-25T11:34:02.000Z</time>
      </trkpt>
      <trkpt lat="48.68343" lon="1.74552">
        <ele>155.80000305176</ele>
        <time>2012-03-25T11:34:09.000Z</time>
      </trkpt>
      <trkpt lat="48.68346" lon="1.74554">
        <ele>155.60000610352</ele>
        <time>2012-03-25T11:34:11.000Z</time>
      </trkpt>
      <trkpt lat="48.68355" lon="1.74561">
        <ele>155.19999694824</ele>
        <time>2012-03-25T11:34:18.000Z</time>
      </trkpt>
      <trkpt lat="48.68364" lon="1.74571">
        <ele>154.80000305176</ele>
        <time>2012-03-25T11:34:25.000Z</time>
      </trkpt>
      <trkpt lat="48.68368" lon="1.74581">
        <ele>154.60000610352</ele>
        <time>2012-03-25T11:34:31.000Z</time>
      </trkpt>
      <trkpt lat="48.68369" lon="1.74588">
        <ele>154.60000610352</ele>
        <time>2012-03-25T11:34:35.000Z</time>
      </trkpt>
      <trkpt lat="48.68367" lon="1.746">
        <ele>154.80000305176</ele>
        <time>2012-03-25T11:34:40.000Z</time>
      </trkpt>
      <trkpt lat="48.68364" lon="1.74615">
        <ele>154.80000305176</ele>
        <time>2012-03-25T11:34:48.000Z</time>
      </trkpt>
      <trkpt lat="48.68358" lon="1.74633">
        <ele>154.80000305176</ele>
        <time>2012-03-25T11:34:57.000Z</time>
      </trkpt>
      <trkpt lat="48.68351" lon="1.7465">
        <ele>154.39999389648</ele>
        <time>2012-03-25T11:35:06.000Z</time>
      </trkpt>
      <trkpt lat="48.68345" lon="1.74665">
        <ele>153.80000305176</ele>
        <time>2012-03-25T11:35:13.000Z</time>
      </trkpt>
      <trkpt lat="48.68341" lon="1.74676">
        <ele>154</ele>
        <time>2012-03-25T11:35:19.000Z</time>
      </trkpt>
      <trkpt lat="48.68337" lon="1.74689">
        <ele>154</ele>
        <time>2012-03-25T11:35:25.000Z</time>
      </trkpt>
      <trkpt lat="48.6833" lon="1.747">
        <ele>154.39999389648</ele>
        <time>2012-03-25T11:35:33.000Z</time>
      </trkpt>
      <trkpt lat="48.68325" lon="1.74709">
        <ele>154.80000305176</ele>
        <time>2012-03-25T11:35:39.000Z</time>
      </trkpt>
      <trkpt lat="48.68322" lon="1.74713">
        <ele>154.80000305176</ele>
        <time>2012-03-25T11:35:42.000Z</time>
      </trkpt>
      <trkpt lat="48.68316" lon="1.74724">
        <ele>155.19999694824</ele>
        <time>2012-03-25T11:35:48.000Z</time>
      </trkpt>
      <trkpt lat="48.68304" lon="1.74743">
        <ele>155.19999694824</ele>
        <time>2012-03-25T11:36:00.000Z</time>
      </trkpt>
      <trkpt lat="48.68297" lon="1.74756">
        <ele>155.19999694824</ele>
        <time>2012-03-25T11:36:07.000Z</time>
      </trkpt>
      <trkpt lat="48.68286" lon="1.74774">
        <ele>154.80000305176</ele>
        <time>2012-03-25T11:36:18.000Z</time>
      </trkpt>
      <trkpt lat="48.68281" lon="1.74786">
        <ele>154.60000610352</ele>
        <time>2012-03-25T11:36:25.000Z</time>
      </trkpt>
      <trkpt lat="48.68278" lon="1.74795">
        <ele>154.39999389648</ele>
        <time>2012-03-25T11:36:30.000Z</time>
      </trkpt>
      <trkpt lat="48.68274" lon="1.74807">
        <ele>153.80000305176</ele>
        <time>2012-03-25T11:36:37.000Z</time>
      </trkpt>
      <trkpt lat="48.68265" lon="1.74823">
        <ele>152.80000305176</ele>
        <time>2012-03-25T11:36:46.000Z</time>
      </trkpt>
      <trkpt lat="48.68259" lon="1.74836">
        <ele>152</ele>
        <time>2012-03-25T11:36:53.000Z</time>
      </trkpt>
      <trkpt lat="48.68251" lon="1.74851">
        <ele>151.39999389648</ele>
        <time>2012-03-25T11:37:01.000Z</time>
      </trkpt>
      <trkpt lat="48.68247" lon="1.74861">
        <ele>151.39999389648</ele>
        <time>2012-03-25T11:37:07.000Z</time>
      </trkpt>
      <trkpt lat="48.68241" lon="1.74877">
        <ele>151.80000305176</ele>
        <time>2012-03-25T11:37:15.000Z</time>
      </trkpt>
      <trkpt lat="48.68237" lon="1.74891">
        <ele>151.80000305176</ele>
        <time>2012-03-25T11:37:22.000Z</time>
      </trkpt>
      <trkpt lat="48.68233" lon="1.74902">
        <ele>151.80000305176</ele>
        <time>2012-03-25T11:37:28.000Z</time>
      </trkpt>
      <trkpt lat="48.68231" lon="1.74915">
        <ele>151.80000305176</ele>
        <time>2012-03-25T11:37:34.000Z</time>
      </trkpt>
      <trkpt lat="48.68227" lon="1.7493">
        <ele>152.19999694824</ele>
        <time>2012-03-25T11:37:42.000Z</time>
      </trkpt>
      <trkpt lat="48.68225" lon="1.74937">
        <ele>152.39999389648</ele>
        <time>2012-03-25T11:37:45.000Z</time>
      </trkpt>
      <trkpt lat="48.68223" lon="1.74952">
        <ele>153</ele>
        <time>2012-03-25T11:37:52.000Z</time>
      </trkpt>
      <trkpt lat="48.68218" lon="1.7496">
        <ele>153</ele>
        <time>2012-03-25T11:37:58.000Z</time>
      </trkpt>
      <trkpt lat="48.68214" lon="1.74978">
        <ele>153.39999389648</ele>
        <time>2012-03-25T11:38:06.000Z</time>
      </trkpt>
      <trkpt lat="48.68212" lon="1.74991">
        <ele>153.60000610352</ele>
        <time>2012-03-25T11:38:13.000Z</time>
      </trkpt>
      <trkpt lat="48.68212" lon="1.74993">
        <ele>153.60000610352</ele>
        <time>2012-03-25T11:38:14.000Z</time>
      </trkpt>
      <trkpt lat="48.68209" lon="1.75005">
        <ele>153.80000305176</ele>
        <time>2012-03-25T11:38:20.000Z</time>
      </trkpt>
      <trkpt lat="48.68203" lon="1.75017">
        <ele>153.60000610352</ele>
        <time>2012-03-25T11:38:26.000Z</time>
      </trkpt>
      <trkpt lat="48.68202" lon="1.75019">
        <ele>153.60000610352</ele>
        <time>2012-03-25T11:38:27.000Z</time>
      </trkpt>
      <trkpt lat="48.68199" lon="1.75029">
        <ele>153.60000610352</ele>
        <time>2012-03-25T11:38:32.000Z</time>
      </trkpt>
      <trkpt lat="48.68194" lon="1.7504">
        <ele>153.39999389648</ele>
        <time>2012-03-25T11:38:38.000Z</time>
      </trkpt>
      <trkpt lat="48.68189" lon="1.75054">
        <ele>153.19999694824</ele>
        <time>2012-03-25T11:38:46.000Z</time>
      </trkpt>
      <trkpt lat="48.68185" lon="1.75067">
        <ele>153</ele>
        <time>2012-03-25T11:38:54.000Z</time>
      </trkpt>
      <trkpt lat="48.6818" lon="1.75081">
        <ele>152.60000610352</ele>
        <time>2012-03-25T11:39:01.000Z</time>
      </trkpt>
      <trkpt lat="48.68174" lon="1.75091">
        <ele>152.39999389648</ele>
        <time>2012-03-25T11:39:09.000Z</time>
      </trkpt>
      <trkpt lat="48.68163" lon="1.75111">
        <ele>152.39999389648</ele>
        <time>2012-03-25T11:39:19.000Z</time>
      </trkpt>
      <trkpt lat="48.68162" lon="1.75113">
        <ele>152.39999389648</ele>
        <time>2012-03-25T11:39:22.000Z</time>
      </trkpt>
      <trkpt lat="48.68149" lon="1.75131">
        <ele>152.39999389648</ele>
        <time>2012-03-25T11:39:40.000Z</time>
      </trkpt>
      <trkpt lat="48.68141" lon="1.75146">
        <ele>152.39999389648</ele>
        <time>2012-03-25T11:39:47.000Z</time>
      </trkpt>
      <trkpt lat="48.68133" lon="1.75158">
        <ele>152.39999389648</ele>
        <time>2012-03-25T11:39:55.000Z</time>
      </trkpt>
      <trkpt lat="48.68126" lon="1.75172">
        <ele>152.19999694824</ele>
        <time>2012-03-25T11:40:03.000Z</time>
      </trkpt>
      <trkpt lat="48.68119" lon="1.75178">
        <ele>151.80000305176</ele>
        <time>2012-03-25T11:40:09.000Z</time>
      </trkpt>
      <trkpt lat="48.68114" lon="1.75188">
        <ele>151.60000610352</ele>
        <time>2012-03-25T11:40:15.000Z</time>
      </trkpt>
      <trkpt lat="48.68105" lon="1.75202">
        <ele>151.19999694824</ele>
        <time>2012-03-25T11:40:25.000Z</time>
      </trkpt>
      <trkpt lat="48.68098" lon="1.75215">
        <ele>151</ele>
        <time>2012-03-25T11:40:34.000Z</time>
      </trkpt>
      <trkpt lat="48.68093" lon="1.75227">
        <ele>150.80000305176</ele>
        <time>2012-03-25T11:40:41.000Z</time>
      </trkpt>
      <trkpt lat="48.68087" lon="1.75239">
        <ele>150.80000305176</ele>
        <time>2012-03-25T11:40:48.000Z</time>
      </trkpt>
      <trkpt lat="48.68084" lon="1.75252">
        <ele>151</ele>
        <time>2012-03-25T11:40:54.000Z</time>
      </trkpt>
      <trkpt lat="48.6808" lon="1.75265">
        <ele>150.80000305176</ele>
        <time>2012-03-25T11:41:01.000Z</time>
      </trkpt>
      <trkpt lat="48.68078" lon="1.75274">
        <ele>150.80000305176</ele>
        <time>2012-03-25T11:41:05.000Z</time>
      </trkpt>
      <trkpt lat="48.68075" lon="1.75288">
        <ele>150.60000610352</ele>
        <time>2012-03-25T11:41:12.000Z</time>
      </trkpt>
      <trkpt lat="48.68074" lon="1.75293">
        <ele>150.60000610352</ele>
        <time>2012-03-25T11:41:14.000Z</time>
      </trkpt>
      <trkpt lat="48.68074" lon="1.7531">
        <ele>150.60000610352</ele>
        <time>2012-03-25T11:41:22.000Z</time>
      </trkpt>
      <trkpt lat="48.6807" lon="1.75327">
        <ele>150.60000610352</ele>
        <time>2012-03-25T11:41:30.000Z</time>
      </trkpt>
      <trkpt lat="48.68069" lon="1.75342">
        <ele>150.39999389648</ele>
        <time>2012-03-25T11:41:37.000Z</time>
      </trkpt>
      <trkpt lat="48.6807" lon="1.75356">
        <ele>150.19999694824</ele>
        <time>2012-03-25T11:41:44.000Z</time>
      </trkpt>
      <trkpt lat="48.68069" lon="1.7536">
        <ele>150.19999694824</ele>
        <time>2012-03-25T11:41:46.000Z</time>
      </trkpt>
      <trkpt lat="48.68068" lon="1.75376">
        <ele>150</ele>
        <time>2012-03-25T11:41:54.000Z</time>
      </trkpt>
      <trkpt lat="48.68064" lon="1.75389">
        <ele>149.80000305176</ele>
        <time>2012-03-25T11:42:00.000Z</time>
      </trkpt>
      <trkpt lat="48.68061" lon="1.75408">
        <ele>149.60000610352</ele>
        <time>2012-03-25T11:42:09.000Z</time>
      </trkpt>
      <trkpt lat="48.68061" lon="1.75412">
        <ele>149.39999389648</ele>
        <time>2012-03-25T11:42:11.000Z</time>
      </trkpt>
      <trkpt lat="48.68059" lon="1.75423">
        <ele>149.39999389648</ele>
        <time>2012-03-25T11:42:17.000Z</time>
      </trkpt>
      <trkpt lat="48.68058" lon="1.75429">
        <ele>149.19999694824</ele>
        <time>2012-03-25T11:42:20.000Z</time>
      </trkpt>
      <trkpt lat="48.68056" lon="1.75437">
        <ele>149.19999694824</ele>
        <time>2012-03-25T11:42:24.000Z</time>
      </trkpt>
      <trkpt lat="48.68054" lon="1.75453">
        <ele>149</ele>
        <time>2012-03-25T11:42:32.000Z</time>
      </trkpt>
      <trkpt lat="48.68051" lon="1.7547">
        <ele>148.80000305176</ele>
        <time>2012-03-25T11:42:40.000Z</time>
      </trkpt>
      <trkpt lat="48.68048" lon="1.75486">
        <ele>148.39999389648</ele>
        <time>2012-03-25T11:42:47.000Z</time>
      </trkpt>
      <trkpt lat="48.68047" lon="1.75495">
        <ele>148.39999389648</ele>
        <time>2012-03-25T11:42:51.000Z</time>
      </trkpt>
      <trkpt lat="48.68047" lon="1.75511">
        <ele>148.19999694824</ele>
        <time>2012-03-25T11:42:59.000Z</time>
      </trkpt>
      <trkpt lat="48.68049" lon="1.75513">
        <ele>148.19999694824</ele>
        <time>2012-03-25T11:43:01.000Z</time>
      </trkpt>
      <trkpt lat="48.6806" lon="1.75522">
        <ele>148.80000305176</ele>
        <time>2012-03-25T11:43:09.000Z</time>
      </trkpt>
      <trkpt lat="48.68068" lon="1.7553">
        <ele>149.19999694824</ele>
        <time>2012-03-25T11:43:16.000Z</time>
      </trkpt>
      <trkpt lat="48.68076" lon="1.75537">
        <ele>149.60000610352</ele>
        <time>2012-03-25T11:43:23.000Z</time>
      </trkpt>
      <trkpt lat="48.68084" lon="1.7554">
        <ele>150</ele>
        <time>2012-03-25T11:43:29.000Z</time>
      </trkpt>
      <trkpt lat="48.68087" lon="1.75541">
        <ele>150.19999694824</ele>
        <time>2012-03-25T11:43:31.000Z</time>
      </trkpt>
      <trkpt lat="48.68094" lon="1.75548">
        <ele>150.39999389648</ele>
        <time>2012-03-25T11:43:37.000Z</time>
      </trkpt>
      <trkpt lat="48.68102" lon="1.75556">
        <ele>150.60000610352</ele>
        <time>2012-03-25T11:43:44.000Z</time>
      </trkpt>
      <trkpt lat="48.68108" lon="1.75559">
        <ele>150.60000610352</ele>
        <time>2012-03-25T11:43:49.000Z</time>
      </trkpt>
      <trkpt lat="48.68114" lon="1.75566">
        <ele>150.80000305176</ele>
        <time>2012-03-25T11:43:55.000Z</time>
      </trkpt>
      <trkpt lat="48.68119" lon="1.7557">
        <ele>151</ele>
        <time>2012-03-25T11:43:59.000Z</time>
      </trkpt>
      <trkpt lat="48.68132" lon="1.75582">
        <ele>151.19999694824</ele>
        <time>2012-03-25T11:44:09.000Z</time>
      </trkpt>
      <trkpt lat="48.68149" lon="1.75591">
        <ele>151.60000610352</ele>
        <time>2012-03-25T11:44:21.000Z</time>
      </trkpt>
      <trkpt lat="48.68164" lon="1.75601">
        <ele>152</ele>
        <time>2012-03-25T11:44:32.000Z</time>
      </trkpt>
      <trkpt lat="48.68178" lon="1.75606">
        <ele>152.19999694824</ele>
        <time>2012-03-25T11:44:42.000Z</time>
      </trkpt>
      <trkpt lat="48.68179" lon="1.75606">
        <ele>152.19999694824</ele>
        <time>2012-03-25T11:44:43.000Z</time>
      </trkpt>
      <trkpt lat="48.68187" lon="1.75611">
        <ele>152.19999694824</ele>
        <time>2012-03-25T11:44:49.000Z</time>
      </trkpt>
      <trkpt lat="48.68193" lon="1.75612">
        <ele>152.39999389648</ele>
        <time>2012-03-25T11:44:55.000Z</time>
      </trkpt>
      <trkpt lat="48.68198" lon="1.75614">
        <ele>152.39999389648</ele>
        <time>2012-03-25T11:45:03.000Z</time>
      </trkpt>
      <trkpt lat="48.68208" lon="1.75617">
        <ele>152.39999389648</ele>
        <time>2012-03-25T11:45:09.000Z</time>
      </trkpt>
      <trkpt lat="48.68219" lon="1.7562">
        <ele>152.60000610352</ele>
        <time>2012-03-25T11:45:17.000Z</time>
      </trkpt>
      <trkpt lat="48.68232" lon="1.75625">
        <ele>152.80000305176</ele>
        <time>2012-03-25T11:45:26.000Z</time>
      </trkpt>
      <trkpt lat="48.68245" lon="1.75631">
        <ele>153</ele>
        <time>2012-03-25T11:45:36.000Z</time>
      </trkpt>
      <trkpt lat="48.68252" lon="1.75634">
        <ele>153</ele>
        <time>2012-03-25T11:45:41.000Z</time>
      </trkpt>
      <trkpt lat="48.68266" lon="1.75636">
        <ele>152.80000305176</ele>
        <time>2012-03-25T11:45:50.000Z</time>
      </trkpt>
      <trkpt lat="48.68276" lon="1.75639">
        <ele>152.60000610352</ele>
        <time>2012-03-25T11:45:56.000Z</time>
      </trkpt>
      <trkpt lat="48.68286" lon="1.75641">
        <ele>152.60000610352</ele>
        <time>2012-03-25T11:46:03.000Z</time>
      </trkpt>
      <trkpt lat="48.683" lon="1.75646">
        <ele>152.39999389648</ele>
        <time>2012-03-25T11:46:13.000Z</time>
      </trkpt>
      <trkpt lat="48.68309" lon="1.75648">
        <ele>152.19999694824</ele>
        <time>2012-03-25T11:46:20.000Z</time>
      </trkpt>
      <trkpt lat="48.6832" lon="1.75646">
        <ele>152.19999694824</ele>
        <time>2012-03-25T11:46:27.000Z</time>
      </trkpt>
      <trkpt lat="48.68333" lon="1.75638">
        <ele>152</ele>
        <time>2012-03-25T11:46:37.000Z</time>
      </trkpt>
      <trkpt lat="48.68344" lon="1.75628">
        <ele>152.39999389648</ele>
        <time>2012-03-25T11:46:47.000Z</time>
      </trkpt>
      <trkpt lat="48.68357" lon="1.7562">
        <ele>152.80000305176</ele>
        <time>2012-03-25T11:46:57.000Z</time>
      </trkpt>
      <trkpt lat="48.68368" lon="1.75614">
        <ele>153</ele>
        <time>2012-03-25T11:47:05.000Z</time>
      </trkpt>
      <trkpt lat="48.68382" lon="1.75605">
        <ele>153.60000610352</ele>
        <time>2012-03-25T11:47:15.000Z</time>
      </trkpt>
      <trkpt lat="48.68392" lon="1.75595">
        <ele>154</ele>
        <time>2012-03-25T11:47:23.000Z</time>
      </trkpt>
      <trkpt lat="48.68403" lon="1.75589">
        <ele>154.39999389648</ele>
        <time>2012-03-25T11:47:32.000Z</time>
      </trkpt>
      <trkpt lat="48.68415" lon="1.75584">
        <ele>155</ele>
        <time>2012-03-25T11:47:41.000Z</time>
      </trkpt>
      <trkpt lat="48.68415" lon="1.75583">
        <ele>155</ele>
        <time>2012-03-25T11:47:42.000Z</time>
      </trkpt>
      <trkpt lat="48.68424" lon="1.75578">
        <ele>155.39999389648</ele>
        <time>2012-03-25T11:47:48.000Z</time>
      </trkpt>
      <trkpt lat="48.68428" lon="1.75575">
        <ele>155.60000610352</ele>
        <time>2012-03-25T11:47:54.000Z</time>
      </trkpt>
      <trkpt lat="48.68435" lon="1.75572">
        <ele>155.80000305176</ele>
        <time>2012-03-25T11:48:08.000Z</time>
      </trkpt>
      <trkpt lat="48.68445" lon="1.75567">
        <ele>156</ele>
        <time>2012-03-25T11:48:15.000Z</time>
      </trkpt>
      <trkpt lat="48.68455" lon="1.75566">
        <ele>156</ele>
        <time>2012-03-25T11:48:22.000Z</time>
      </trkpt>
      <trkpt lat="48.68463" lon="1.75563">
        <ele>156.19999694824</ele>
        <time>2012-03-25T11:48:28.000Z</time>
      </trkpt>
      <trkpt lat="48.68471" lon="1.75558">
        <ele>156.39999389648</ele>
        <time>2012-03-25T11:48:34.000Z</time>
      </trkpt>
      <trkpt lat="48.6848" lon="1.75551">
        <ele>156.80000305176</ele>
        <time>2012-03-25T11:48:41.000Z</time>
      </trkpt>
      <trkpt lat="48.6849" lon="1.75544">
        <ele>157</ele>
        <time>2012-03-25T11:48:48.000Z</time>
      </trkpt>
      <trkpt lat="48.68495" lon="1.75541">
        <ele>157.19999694824</ele>
        <time>2012-03-25T11:48:53.000Z</time>
      </trkpt>
      <trkpt lat="48.68499" lon="1.75534">
        <ele>157.39999389648</ele>
        <time>2012-03-25T11:48:57.000Z</time>
      </trkpt>
      <trkpt lat="48.68513" lon="1.7553">
        <ele>157.80000305176</ele>
        <time>2012-03-25T11:49:06.000Z</time>
      </trkpt>
      <trkpt lat="48.68521" lon="1.75526">
        <ele>158</ele>
        <time>2012-03-25T11:49:11.000Z</time>
      </trkpt>
      <trkpt lat="48.6853" lon="1.75518">
        <ele>158.39999389648</ele>
        <time>2012-03-25T11:49:18.000Z</time>
      </trkpt>
      <trkpt lat="48.68536" lon="1.75514">
        <ele>158.60000610352</ele>
        <time>2012-03-25T11:49:22.000Z</time>
      </trkpt>
      <trkpt lat="48.68544" lon="1.75513">
        <ele>158.60000610352</ele>
        <time>2012-03-25T11:49:27.000Z</time>
      </trkpt>
      <trkpt lat="48.68554" lon="1.75511">
        <ele>158.80000305176</ele>
        <time>2012-03-25T11:49:34.000Z</time>
      </trkpt>
      <trkpt lat="48.68563" lon="1.75508">
        <ele>159</ele>
        <time>2012-03-25T11:49:40.000Z</time>
      </trkpt>
      <trkpt lat="48.68576" lon="1.75503">
        <ele>159</ele>
        <time>2012-03-25T11:49:49.000Z</time>
      </trkpt>
      <trkpt lat="48.68586" lon="1.75498">
        <ele>159</ele>
        <time>2012-03-25T11:49:56.000Z</time>
      </trkpt>
      <trkpt lat="48.68594" lon="1.75494">
        <ele>159.19999694824</ele>
        <time>2012-03-25T11:50:01.000Z</time>
      </trkpt>
      <trkpt lat="48.68606" lon="1.75485">
        <ele>159.19999694824</ele>
        <time>2012-03-25T11:50:07.000Z</time>
      </trkpt>
      <trkpt lat="48.68618" lon="1.75478">
        <ele>159.19999694824</ele>
        <time>2012-03-25T11:50:13.000Z</time>
      </trkpt>
      <trkpt lat="48.6863" lon="1.75474">
        <ele>159.19999694824</ele>
        <time>2012-03-25T11:50:21.000Z</time>
      </trkpt>
      <trkpt lat="48.68636" lon="1.75471">
        <ele>159.19999694824</ele>
        <time>2012-03-25T11:50:27.000Z</time>
      </trkpt>
      <trkpt lat="48.68642" lon="1.75467">
        <ele>159</ele>
        <time>2012-03-25T11:50:32.000Z</time>
      </trkpt>
      <trkpt lat="48.68652" lon="1.7546">
        <ele>158.80000305176</ele>
        <time>2012-03-25T11:50:39.000Z</time>
      </trkpt>
      <trkpt lat="48.68653" lon="1.7546">
        <ele>158.80000305176</ele>
        <time>2012-03-25T11:50:40.000Z</time>
      </trkpt>
      <trkpt lat="48.68659" lon="1.75457">
        <ele>158.60000610352</ele>
        <time>2012-03-25T11:50:44.000Z</time>
      </trkpt>
      <trkpt lat="48.68664" lon="1.75455">
        <ele>158.39999389648</ele>
        <time>2012-03-25T11:50:48.000Z</time>
      </trkpt>
      <trkpt lat="48.68675" lon="1.75449">
        <ele>158.19999694824</ele>
        <time>2012-03-25T11:50:55.000Z</time>
      </trkpt>
      <trkpt lat="48.68684" lon="1.75442">
        <ele>157.80000305176</ele>
        <time>2012-03-25T11:51:03.000Z</time>
      </trkpt>
      <trkpt lat="48.68686" lon="1.75435">
        <ele>157.60000610352</ele>
        <time>2012-03-25T11:51:10.000Z</time>
      </trkpt>
      <trkpt lat="48.68706" lon="1.75426">
        <ele>157.19999694824</ele>
        <time>2012-03-25T11:51:50.000Z</time>
      </trkpt>
      <trkpt lat="48.68711" lon="1.75425">
        <ele>157.19999694824</ele>
        <time>2012-03-25T11:51:52.000Z</time>
      </trkpt>
      <trkpt lat="48.68723" lon="1.75419">
        <ele>157</ele>
        <time>2012-03-25T11:52:01.000Z</time>
      </trkpt>
      <trkpt lat="48.68733" lon="1.75413">
        <ele>157</ele>
        <time>2012-03-25T11:52:09.000Z</time>
      </trkpt>
      <trkpt lat="48.68741" lon="1.7541">
        <ele>156.80000305176</ele>
        <time>2012-03-25T11:52:17.000Z</time>
      </trkpt>
      <trkpt lat="48.68749" lon="1.75405">
        <ele>156.80000305176</ele>
        <time>2012-03-25T11:52:23.000Z</time>
      </trkpt>
      <trkpt lat="48.68764" lon="1.754">
        <ele>156.80000305176</ele>
        <time>2012-03-25T11:52:32.000Z</time>
      </trkpt>
      <trkpt lat="48.68776" lon="1.75396">
        <ele>156.80000305176</ele>
        <time>2012-03-25T11:52:39.000Z</time>
      </trkpt>
      <trkpt lat="48.68789" lon="1.75389">
        <ele>156.60000610352</ele>
        <time>2012-03-25T11:52:47.000Z</time>
      </trkpt>
      <trkpt lat="48.68803" lon="1.75378">
        <ele>156.39999389648</ele>
        <time>2012-03-25T11:52:55.000Z</time>
      </trkpt>
      <trkpt lat="48.68813" lon="1.75373">
        <ele>156.39999389648</ele>
        <time>2012-03-25T11:53:02.000Z</time>
      </trkpt>
      <trkpt lat="48.68822" lon="1.75367">
        <ele>156.19999694824</ele>
        <time>2012-03-25T11:53:09.000Z</time>
      </trkpt>
      <trkpt lat="48.68833" lon="1.75361">
        <ele>156</ele>
        <time>2012-03-25T11:53:16.000Z</time>
      </trkpt>
      <trkpt lat="48.68839" lon="1.75357">
        <ele>155.80000305176</ele>
        <time>2012-03-25T11:53:21.000Z</time>
      </trkpt>
      <trkpt lat="48.6885" lon="1.7535">
        <ele>155.39999389648</ele>
        <time>2012-03-25T11:53:29.000Z</time>
      </trkpt>
      <trkpt lat="48.68859" lon="1.75344">
        <ele>155</ele>
        <time>2012-03-25T11:53:37.000Z</time>
      </trkpt>
      <trkpt lat="48.68868" lon="1.7534">
        <ele>154.80000305176</ele>
        <time>2012-03-25T11:53:42.000Z</time>
      </trkpt>
      <trkpt lat="48.68879" lon="1.75333">
        <ele>154.39999389648</ele>
        <time>2012-03-25T11:53:48.000Z</time>
      </trkpt>
      <trkpt lat="48.6889" lon="1.75329">
        <ele>154.19999694824</ele>
        <time>2012-03-25T11:53:56.000Z</time>
      </trkpt>
      <trkpt lat="48.68903" lon="1.75322">
        <ele>154</ele>
        <time>2012-03-25T11:54:05.000Z</time>
      </trkpt>
      <trkpt lat="48.68914" lon="1.75316">
        <ele>153.80000305176</ele>
        <time>2012-03-25T11:54:12.000Z</time>
      </trkpt>
      <trkpt lat="48.68926" lon="1.75311">
        <ele>154</ele>
        <time>2012-03-25T11:54:20.000Z</time>
      </trkpt>
      <trkpt lat="48.68934" lon="1.75305">
        <ele>154.19999694824</ele>
        <time>2012-03-25T11:54:25.000Z</time>
      </trkpt>
      <trkpt lat="48.68941" lon="1.75301">
        <ele>154.39999389648</ele>
        <time>2012-03-25T11:54:31.000Z</time>
      </trkpt>
      <trkpt lat="48.68948" lon="1.75298">
        <ele>154.60000610352</ele>
        <time>2012-03-25T11:54:36.000Z</time>
      </trkpt>
      <trkpt lat="48.68956" lon="1.75297">
        <ele>154.80000305176</ele>
        <time>2012-03-25T11:54:43.000Z</time>
      </trkpt>
      <trkpt lat="48.68967" lon="1.7529">
        <ele>155</ele>
        <time>2012-03-25T11:54:51.000Z</time>
      </trkpt>
      <trkpt lat="48.68976" lon="1.75284">
        <ele>155.19999694824</ele>
        <time>2012-03-25T11:54:57.000Z</time>
      </trkpt>
      <trkpt lat="48.68985" lon="1.75279">
        <ele>155.19999694824</ele>
        <time>2012-03-25T11:55:03.000Z</time>
      </trkpt>
      <trkpt lat="48.68994" lon="1.75275">
        <ele>155.39999389648</ele>
        <time>2012-03-25T11:55:09.000Z</time>
      </trkpt>
      <trkpt lat="48.69003" lon="1.75271">
        <ele>155.60000610352</ele>
        <time>2012-03-25T11:55:15.000Z</time>
      </trkpt>
      <trkpt lat="48.69013" lon="1.75273">
        <ele>156</ele>
        <time>2012-03-25T11:55:23.000Z</time>
      </trkpt>
      <trkpt lat="48.69021" lon="1.7528">
        <ele>156.60000610352</ele>
        <time>2012-03-25T11:55:28.000Z</time>
      </trkpt>
      <trkpt lat="48.6903" lon="1.7529">
        <ele>157</ele>
        <time>2012-03-25T11:55:35.000Z</time>
      </trkpt>
      <trkpt lat="48.69033" lon="1.75295">
        <ele>157.19999694824</ele>
        <time>2012-03-25T11:55:38.000Z</time>
      </trkpt>
      <trkpt lat="48.69043" lon="1.75301">
        <ele>157.60000610352</ele>
        <time>2012-03-25T11:55:45.000Z</time>
      </trkpt>
      <trkpt lat="48.69046" lon="1.75304">
        <ele>157.80000305176</ele>
        <time>2012-03-25T11:55:47.000Z</time>
      </trkpt>
      <trkpt lat="48.69054" lon="1.7531">
        <ele>158.19999694824</ele>
        <time>2012-03-25T11:55:53.000Z</time>
      </trkpt>
      <trkpt lat="48.69061" lon="1.75316">
        <ele>158.39999389648</ele>
        <time>2012-03-25T11:55:58.000Z</time>
      </trkpt>
      <trkpt lat="48.6907" lon="1.75323">
        <ele>158.60000610352</ele>
        <time>2012-03-25T11:56:05.000Z</time>
      </trkpt>
      <trkpt lat="48.69075" lon="1.75328">
        <ele>158.80000305176</ele>
        <time>2012-03-25T11:56:09.000Z</time>
      </trkpt>
      <trkpt lat="48.69086" lon="1.7534">
        <ele>159</ele>
        <time>2012-03-25T11:56:18.000Z</time>
      </trkpt>
      <trkpt lat="48.69093" lon="1.75347">
        <ele>158.80000305176</ele>
        <time>2012-03-25T11:56:24.000Z</time>
      </trkpt>
      <trkpt lat="48.69099" lon="1.75356">
        <ele>158.80000305176</ele>
        <time>2012-03-25T11:56:30.000Z</time>
      </trkpt>
      <trkpt lat="48.69108" lon="1.75364">
        <ele>158.80000305176</ele>
        <time>2012-03-25T11:56:37.000Z</time>
      </trkpt>
      <trkpt lat="48.69119" lon="1.75374">
        <ele>158.80000305176</ele>
        <time>2012-03-25T11:56:45.000Z</time>
      </trkpt>
      <trkpt lat="48.69128" lon="1.75384">
        <ele>158.60000610352</ele>
        <time>2012-03-25T11:56:53.000Z</time>
      </trkpt>
      <trkpt lat="48.69137" lon="1.75393">
        <ele>158.60000610352</ele>
        <time>2012-03-25T11:57:01.000Z</time>
      </trkpt>
      <trkpt lat="48.69147" lon="1.75404">
        <ele>158.19999694824</ele>
        <time>2012-03-25T11:57:10.000Z</time>
      </trkpt>
      <trkpt lat="48.69155" lon="1.75413">
        <ele>158</ele>
        <time>2012-03-25T11:57:18.000Z</time>
      </trkpt>
      <trkpt lat="48.69162" lon="1.75417">
        <ele>157.80000305176</ele>
        <time>2012-03-25T11:57:25.000Z</time>
      </trkpt>
      <trkpt lat="48.69166" lon="1.75418">
        <ele>158</ele>
        <time>2012-03-25T11:57:28.000Z</time>
      </trkpt>
      <trkpt lat="48.6917" lon="1.75421">
        <ele>158</ele>
        <time>2012-03-25T11:57:33.000Z</time>
      </trkpt>
      <trkpt lat="48.69172" lon="1.75424">
        <ele>158</ele>
        <time>2012-03-25T11:57:36.000Z</time>
      </trkpt>
      <trkpt lat="48.69173" lon="1.75425">
        <ele>158</ele>
        <time>2012-03-25T11:57:37.000Z</time>
      </trkpt>
      <trkpt lat="48.69188" lon="1.75438">
        <ele>158.19999694824</ele>
        <time>2012-03-25T11:57:41.000Z</time>
      </trkpt>
      <trkpt lat="48.69198" lon="1.75447">
        <ele>158.19999694824</ele>
        <time>2012-03-25T11:57:46.000Z</time>
      </trkpt>
      <trkpt lat="48.69204" lon="1.75455">
        <ele>158.19999694824</ele>
        <time>2012-03-25T11:57:52.000Z</time>
      </trkpt>
      <trkpt lat="48.69211" lon="1.75462">
        <ele>158.19999694824</ele>
        <time>2012-03-25T11:57:58.000Z</time>
      </trkpt>
      <trkpt lat="48.69212" lon="1.75463">
        <ele>158.19999694824</ele>
        <time>2012-03-25T11:58:02.000Z</time>
      </trkpt>
      <trkpt lat="48.69222" lon="1.75471">
        <ele>158.19999694824</ele>
        <time>2012-03-25T11:58:28.000Z</time>
      </trkpt>
      <trkpt lat="48.69227" lon="1.75475">
        <ele>158.19999694824</ele>
        <time>2012-03-25T11:58:31.000Z</time>
      </trkpt>
      <trkpt lat="48.69239" lon="1.75488">
        <ele>158.19999694824</ele>
        <time>2012-03-25T11:58:41.000Z</time>
      </trkpt>
      <trkpt lat="48.69243" lon="1.75492">
        <ele>158</ele>
        <time>2012-03-25T11:58:45.000Z</time>
      </trkpt>
      <trkpt lat="48.69247" lon="1.75496">
        <ele>158</ele>
        <time>2012-03-25T11:58:50.000Z</time>
      </trkpt>
      <trkpt lat="48.69256" lon="1.75506">
        <ele>158.19999694824</ele>
        <time>2012-03-25T11:58:58.000Z</time>
      </trkpt>
      <trkpt lat="48.69263" lon="1.75512">
        <ele>158.39999389648</ele>
        <time>2012-03-25T11:59:04.000Z</time>
      </trkpt>
      <trkpt lat="48.6927" lon="1.75522">
        <ele>158.80000305176</ele>
        <time>2012-03-25T11:59:11.000Z</time>
      </trkpt>
      <trkpt lat="48.69278" lon="1.75529">
        <ele>159</ele>
        <time>2012-03-25T11:59:18.000Z</time>
      </trkpt>
      <trkpt lat="48.69287" lon="1.75536">
        <ele>159.39999389648</ele>
        <time>2012-03-25T11:59:25.000Z</time>
      </trkpt>
      <trkpt lat="48.69293" lon="1.75541">
        <ele>159.60000610352</ele>
        <time>2012-03-25T11:59:30.000Z</time>
      </trkpt>
      <trkpt lat="48.693" lon="1.75553">
        <ele>159.80000305176</ele>
        <time>2012-03-25T11:59:37.000Z</time>
      </trkpt>
      <trkpt lat="48.6931" lon="1.75562">
        <ele>160.19999694824</ele>
        <time>2012-03-25T11:59:45.000Z</time>
      </trkpt>
      <trkpt lat="48.69316" lon="1.75571">
        <ele>160.39999389648</ele>
        <time>2012-03-25T11:59:51.000Z</time>
      </trkpt>
      <trkpt lat="48.69324" lon="1.75578">
        <ele>160.60000610352</ele>
        <time>2012-03-25T11:59:57.000Z</time>
      </trkpt>
      <trkpt lat="48.69332" lon="1.75582">
        <ele>161</ele>
        <time>2012-03-25T12:00:03.000Z</time>
      </trkpt>
      <trkpt lat="48.69341" lon="1.75587">
        <ele>161</ele>
        <time>2012-03-25T12:00:10.000Z</time>
      </trkpt>
      <trkpt lat="48.69352" lon="1.7559">
        <ele>161</ele>
        <time>2012-03-25T12:00:16.000Z</time>
      </trkpt>
      <trkpt lat="48.6936" lon="1.75592">
        <ele>161</ele>
        <time>2012-03-25T12:00:22.000Z</time>
      </trkpt>
      <trkpt lat="48.6937" lon="1.75594">
        <ele>160.80000305176</ele>
        <time>2012-03-25T12:00:29.000Z</time>
      </trkpt>
      <trkpt lat="48.69382" lon="1.75596">
        <ele>160.80000305176</ele>
        <time>2012-03-25T12:00:38.000Z</time>
      </trkpt>
      <trkpt lat="48.69392" lon="1.75598">
        <ele>160.80000305176</ele>
        <time>2012-03-25T12:00:45.000Z</time>
      </trkpt>
      <trkpt lat="48.69399" lon="1.75598">
        <ele>160.80000305176</ele>
        <time>2012-03-25T12:00:51.000Z</time>
      </trkpt>
      <trkpt lat="48.69405" lon="1.75601">
        <ele>160.80000305176</ele>
        <time>2012-03-25T12:00:57.000Z</time>
      </trkpt>
      <trkpt lat="48.69407" lon="1.75601">
        <ele>160.80000305176</ele>
        <time>2012-03-25T12:00:58.000Z</time>
      </trkpt>
      <trkpt lat="48.69417" lon="1.756">
        <ele>160.60000610352</ele>
        <time>2012-03-25T12:01:05.000Z</time>
      </trkpt>
      <trkpt lat="48.69429" lon="1.756">
        <ele>160</ele>
        <time>2012-03-25T12:01:11.000Z</time>
      </trkpt>
      <trkpt lat="48.69443" lon="1.75599">
        <ele>159.39999389648</ele>
        <time>2012-03-25T12:01:20.000Z</time>
      </trkpt>
      <trkpt lat="48.69452" lon="1.75595">
        <ele>158.80000305176</ele>
        <time>2012-03-25T12:01:26.000Z</time>
      </trkpt>
      <trkpt lat="48.69466" lon="1.75592">
        <ele>158</ele>
        <time>2012-03-25T12:01:34.000Z</time>
      </trkpt>
      <trkpt lat="48.69474" lon="1.75587">
        <ele>157.39999389648</ele>
        <time>2012-03-25T12:01:40.000Z</time>
      </trkpt>
      <trkpt lat="48.69489" lon="1.7558">
        <ele>156.39999389648</ele>
        <time>2012-03-25T12:01:49.000Z</time>
      </trkpt>
      <trkpt lat="48.69498" lon="1.75575">
        <ele>155.80000305176</ele>
        <time>2012-03-25T12:01:54.000Z</time>
      </trkpt>
      <trkpt lat="48.69511" lon="1.7557">
        <ele>155.80000305176</ele>
        <time>2012-03-25T12:02:02.000Z</time>
      </trkpt>
      <trkpt lat="48.69514" lon="1.75568">
        <ele>155.60000610352</ele>
        <time>2012-03-25T12:02:04.000Z</time>
      </trkpt>
      <trkpt lat="48.69525" lon="1.75561">
        <ele>155.60000610352</ele>
        <time>2012-03-25T12:02:12.000Z</time>
      </trkpt>
      <trkpt lat="48.69538" lon="1.75556">
        <ele>155.60000610352</ele>
        <time>2012-03-25T12:02:21.000Z</time>
      </trkpt>
      <trkpt lat="48.69548" lon="1.7555">
        <ele>155.60000610352</ele>
        <time>2012-03-25T12:02:27.000Z</time>
      </trkpt>
      <trkpt lat="48.69557" lon="1.75545">
        <ele>155.80000305176</ele>
        <time>2012-03-25T12:02:33.000Z</time>
      </trkpt>
      <trkpt lat="48.69569" lon="1.75541">
        <ele>155.80000305176</ele>
        <time>2012-03-25T12:02:42.000Z</time>
      </trkpt>
      <trkpt lat="48.69576" lon="1.75539">
        <ele>156</ele>
        <time>2012-03-25T12:02:47.000Z</time>
      </trkpt>
      <trkpt lat="48.69584" lon="1.75536">
        <ele>156</ele>
        <time>2012-03-25T12:02:53.000Z</time>
      </trkpt>
      <trkpt lat="48.69587" lon="1.75534">
        <ele>156.19999694824</ele>
        <time>2012-03-25T12:02:55.000Z</time>
      </trkpt>
      <trkpt lat="48.69598" lon="1.75527">
        <ele>156.39999389648</ele>
        <time>2012-03-25T12:03:04.000Z</time>
      </trkpt>
      <trkpt lat="48.69609" lon="1.75523">
        <ele>156.80000305176</ele>
        <time>2012-03-25T12:03:12.000Z</time>
      </trkpt>
      <trkpt lat="48.69619" lon="1.75519">
        <ele>157.19999694824</ele>
        <time>2012-03-25T12:03:19.000Z</time>
      </trkpt>
      <trkpt lat="48.69628" lon="1.75516">
        <ele>157.60000610352</ele>
        <time>2012-03-25T12:03:26.000Z</time>
      </trkpt>
      <trkpt lat="48.69641" lon="1.75512">
        <ele>158</ele>
        <time>2012-03-25T12:03:35.000Z</time>
      </trkpt>
      <trkpt lat="48.6965" lon="1.75507">
        <ele>158.39999389648</ele>
        <time>2012-03-25T12:03:41.000Z</time>
      </trkpt>
      <trkpt lat="48.69661" lon="1.755">
        <ele>158.80000305176</ele>
        <time>2012-03-25T12:03:49.000Z</time>
      </trkpt>
      <trkpt lat="48.69675" lon="1.75495">
        <ele>159.60000610352</ele>
        <time>2012-03-25T12:03:59.000Z</time>
      </trkpt>
      <trkpt lat="48.69688" lon="1.75489">
        <ele>160.60000610352</ele>
        <time>2012-03-25T12:04:09.000Z</time>
      </trkpt>
      <trkpt lat="48.697" lon="1.75485">
        <ele>161.39999389648</ele>
        <time>2012-03-25T12:04:18.000Z</time>
      </trkpt>
      <trkpt lat="48.6971" lon="1.75481">
        <ele>162</ele>
        <time>2012-03-25T12:04:25.000Z</time>
      </trkpt>
      <trkpt lat="48.69721" lon="1.75475">
        <ele>162.80000305176</ele>
        <time>2012-03-25T12:04:33.000Z</time>
      </trkpt>
      <trkpt lat="48.69734" lon="1.7547">
        <ele>163.60000610352</ele>
        <time>2012-03-25T12:04:42.000Z</time>
      </trkpt>
      <trkpt lat="48.69742" lon="1.75465">
        <ele>164.39999389648</ele>
        <time>2012-03-25T12:04:48.000Z</time>
      </trkpt>
      <trkpt lat="48.69753" lon="1.75459">
        <ele>165.19999694824</ele>
        <time>2012-03-25T12:04:57.000Z</time>
      </trkpt>
      <trkpt lat="48.69763" lon="1.75454">
        <ele>165.80000305176</ele>
        <time>2012-03-25T12:05:03.000Z</time>
      </trkpt>
      <trkpt lat="48.69771" lon="1.7545">
        <ele>166.19999694824</ele>
        <time>2012-03-25T12:05:08.000Z</time>
      </trkpt>
      <trkpt lat="48.69782" lon="1.75445">
        <ele>167</ele>
        <time>2012-03-25T12:05:16.000Z</time>
      </trkpt>
      <trkpt lat="48.69786" lon="1.75444">
        <ele>167.19999694824</ele>
        <time>2012-03-25T12:05:19.000Z</time>
      </trkpt>
      <trkpt lat="48.6979" lon="1.75442">
        <ele>167.39999389648</ele>
        <time>2012-03-25T12:05:23.000Z</time>
      </trkpt>
      <trkpt lat="48.698" lon="1.75437">
        <ele>168</ele>
        <time>2012-03-25T12:05:32.000Z</time>
      </trkpt>
      <trkpt lat="48.69807" lon="1.75434">
        <ele>168.39999389648</ele>
        <time>2012-03-25T12:05:37.000Z</time>
      </trkpt>
      <trkpt lat="48.69815" lon="1.75427">
        <ele>169</ele>
        <time>2012-03-25T12:05:44.000Z</time>
      </trkpt>
      <trkpt lat="48.69824" lon="1.75424">
        <ele>169.39999389648</ele>
        <time>2012-03-25T12:05:51.000Z</time>
      </trkpt>
      <trkpt lat="48.69829" lon="1.75421">
        <ele>169.60000610352</ele>
        <time>2012-03-25T12:05:55.000Z</time>
      </trkpt>
      <trkpt lat="48.6984" lon="1.75417">
        <ele>170.19999694824</ele>
        <time>2012-03-25T12:06:03.000Z</time>
      </trkpt>
      <trkpt lat="48.69851" lon="1.75412">
        <ele>170.60000610352</ele>
        <time>2012-03-25T12:06:11.000Z</time>
      </trkpt>
      <trkpt lat="48.69858" lon="1.75408">
        <ele>170.80000305176</ele>
        <time>2012-03-25T12:06:16.000Z</time>
      </trkpt>
      <trkpt lat="48.69867" lon="1.75404">
        <ele>171</ele>
        <time>2012-03-25T12:06:24.000Z</time>
      </trkpt>
      <trkpt lat="48.69868" lon="1.75404">
        <ele>171</ele>
        <time>2012-03-25T12:06:25.000Z</time>
      </trkpt>
      <trkpt lat="48.69873" lon="1.75399">
        <ele>171.19999694824</ele>
        <time>2012-03-25T12:06:30.000Z</time>
      </trkpt>
      <trkpt lat="48.69885" lon="1.7539">
        <ele>171.60000610352</ele>
        <time>2012-03-25T12:06:38.000Z</time>
      </trkpt>
      <trkpt lat="48.69889" lon="1.75383">
        <ele>171.80000305176</ele>
        <time>2012-03-25T12:06:43.000Z</time>
      </trkpt>
      <trkpt lat="48.69896" lon="1.75387">
        <ele>172</ele>
        <time>2012-03-25T12:06:49.000Z</time>
      </trkpt>
      <trkpt lat="48.69897" lon="1.75386">
        <ele>172</ele>
        <time>2012-03-25T12:06:50.000Z</time>
      </trkpt>
      <trkpt lat="48.69902" lon="1.75385">
        <ele>172</ele>
        <time>2012-03-25T12:06:57.000Z</time>
      </trkpt>
      <trkpt lat="48.69912" lon="1.75381">
        <ele>172.39999389648</ele>
        <time>2012-03-25T12:07:04.000Z</time>
      </trkpt>
      <trkpt lat="48.69919" lon="1.75378">
        <ele>172.39999389648</ele>
        <time>2012-03-25T12:07:09.000Z</time>
      </trkpt>
      <trkpt lat="48.69926" lon="1.75375">
        <ele>172.19999694824</ele>
        <time>2012-03-25T12:07:14.000Z</time>
      </trkpt>
      <trkpt lat="48.69934" lon="1.75371">
        <ele>172.19999694824</ele>
        <time>2012-03-25T12:07:21.000Z</time>
      </trkpt>
      <trkpt lat="48.69944" lon="1.75366">
        <ele>172</ele>
        <time>2012-03-25T12:07:28.000Z</time>
      </trkpt>
      <trkpt lat="48.69955" lon="1.75362">
        <ele>171.80000305176</ele>
        <time>2012-03-25T12:07:35.000Z</time>
      </trkpt>
      <trkpt lat="48.69964" lon="1.75358">
        <ele>171.80000305176</ele>
        <time>2012-03-25T12:07:40.000Z</time>
      </trkpt>
      <trkpt lat="48.69976" lon="1.7535">
        <ele>171.80000305176</ele>
        <time>2012-03-25T12:07:48.000Z</time>
      </trkpt>
      <trkpt lat="48.69984" lon="1.75348">
        <ele>171.80000305176</ele>
        <time>2012-03-25T12:07:54.000Z</time>
      </trkpt>
      <trkpt lat="48.69994" lon="1.75347">
        <ele>171.60000610352</ele>
        <time>2012-03-25T12:08:01.000Z</time>
      </trkpt>
      <trkpt lat="48.69999" lon="1.7535">
        <ele>171.39999389648</ele>
        <time>2012-03-25T12:08:06.000Z</time>
      </trkpt>
      <trkpt lat="48.70001" lon="1.75356">
        <ele>171.19999694824</ele>
        <time>2012-03-25T12:08:10.000Z</time>
      </trkpt>
      <trkpt lat="48.70007" lon="1.75366">
        <ele>170.80000305176</ele>
        <time>2012-03-25T12:08:15.000Z</time>
      </trkpt>
      <trkpt lat="48.70009" lon="1.75372">
        <ele>170.60000610352</ele>
        <time>2012-03-25T12:08:18.000Z</time>
      </trkpt>
      <trkpt lat="48.70012" lon="1.75378">
        <ele>170.19999694824</ele>
        <time>2012-03-25T12:08:22.000Z</time>
      </trkpt>
      <trkpt lat="48.70016" lon="1.75398">
        <ele>169.39999389648</ele>
        <time>2012-03-25T12:08:30.000Z</time>
      </trkpt>
      <trkpt lat="48.7002" lon="1.75414">
        <ele>168.60000610352</ele>
        <time>2012-03-25T12:08:37.000Z</time>
      </trkpt>
      <trkpt lat="48.70024" lon="1.75429">
        <ele>168</ele>
        <time>2012-03-25T12:08:44.000Z</time>
      </trkpt>
      <trkpt lat="48.70026" lon="1.75433">
        <ele>167.80000305176</ele>
        <time>2012-03-25T12:08:46.000Z</time>
      </trkpt>
      <trkpt lat="48.70031" lon="1.75447">
        <ele>167.19999694824</ele>
        <time>2012-03-25T12:08:53.000Z</time>
      </trkpt>
      <trkpt lat="48.70037" lon="1.75467">
        <ele>166.19999694824</ele>
        <time>2012-03-25T12:09:02.000Z</time>
      </trkpt>
      <trkpt lat="48.7004" lon="1.75481">
        <ele>165.39999389648</ele>
        <time>2012-03-25T12:09:09.000Z</time>
      </trkpt>
      <trkpt lat="48.70043" lon="1.75495">
        <ele>164.60000610352</ele>
        <time>2012-03-25T12:09:15.000Z</time>
      </trkpt>
      <trkpt lat="48.70045" lon="1.7551">
        <ele>164.60000610352</ele>
        <time>2012-03-25T12:09:22.000Z</time>
      </trkpt>
      <trkpt lat="48.7005" lon="1.75523">
        <ele>164.80000305176</ele>
        <time>2012-03-25T12:09:28.000Z</time>
      </trkpt>
      <trkpt lat="48.70056" lon="1.75535">
        <ele>165</ele>
        <time>2012-03-25T12:09:34.000Z</time>
      </trkpt>
      <trkpt lat="48.70057" lon="1.7554">
        <ele>165</ele>
        <time>2012-03-25T12:09:36.000Z</time>
      </trkpt>
      <trkpt lat="48.70061" lon="1.75556">
        <ele>165.60000610352</ele>
        <time>2012-03-25T12:09:43.000Z</time>
      </trkpt>
      <trkpt lat="48.70065" lon="1.75571">
        <ele>166.19999694824</ele>
        <time>2012-03-25T12:09:50.000Z</time>
      </trkpt>
      <trkpt lat="48.70067" lon="1.75586">
        <ele>166.80000305176</ele>
        <time>2012-03-25T12:09:57.000Z</time>
      </trkpt>
      <trkpt lat="48.7007" lon="1.75597">
        <ele>166.39999389648</ele>
        <time>2012-03-25T12:10:02.000Z</time>
      </trkpt>
      <trkpt lat="48.70074" lon="1.75608">
        <ele>166</ele>
        <time>2012-03-25T12:10:07.000Z</time>
      </trkpt>
      <trkpt lat="48.70076" lon="1.75615">
        <ele>165.80000305176</ele>
        <time>2012-03-25T12:10:10.000Z</time>
      </trkpt>
      <trkpt lat="48.70081" lon="1.75631">
        <ele>165.19999694824</ele>
        <time>2012-03-25T12:10:17.000Z</time>
      </trkpt>
      <trkpt lat="48.70084" lon="1.75644">
        <ele>164.80000305176</ele>
        <time>2012-03-25T12:10:23.000Z</time>
      </trkpt>
      <trkpt lat="48.70088" lon="1.75665">
        <ele>164.19999694824</ele>
        <time>2012-03-25T12:10:32.000Z</time>
      </trkpt>
      <trkpt lat="48.70092" lon="1.75679">
        <ele>164</ele>
        <time>2012-03-25T12:10:39.000Z</time>
      </trkpt>
      <trkpt lat="48.70096" lon="1.75692">
        <ele>163.80000305176</ele>
        <time>2012-03-25T12:10:46.000Z</time>
      </trkpt>
      <trkpt lat="48.70101" lon="1.75711">
        <ele>163.60000610352</ele>
        <time>2012-03-25T12:10:55.000Z</time>
      </trkpt>
      <trkpt lat="48.70107" lon="1.7573">
        <ele>163.60000610352</ele>
        <time>2012-03-25T12:11:04.000Z</time>
      </trkpt>
      <trkpt lat="48.70113" lon="1.75751">
        <ele>163.39999389648</ele>
        <time>2012-03-25T12:11:13.000Z</time>
      </trkpt>
      <trkpt lat="48.70118" lon="1.75771">
        <ele>164</ele>
        <time>2012-03-25T12:11:22.000Z</time>
      </trkpt>
      <trkpt lat="48.70123" lon="1.75787">
        <ele>164.60000610352</ele>
        <time>2012-03-25T12:11:29.000Z</time>
      </trkpt>
      <trkpt lat="48.70127" lon="1.75801">
        <ele>165</ele>
        <time>2012-03-25T12:11:36.000Z</time>
      </trkpt>
      <trkpt lat="48.70133" lon="1.75821">
        <ele>165.60000610352</ele>
        <time>2012-03-25T12:11:45.000Z</time>
      </trkpt>
      <trkpt lat="48.70137" lon="1.75835">
        <ele>166</ele>
        <time>2012-03-25T12:11:52.000Z</time>
      </trkpt>
      <trkpt lat="48.70138" lon="1.75837">
        <ele>166</ele>
        <time>2012-03-25T12:11:53.000Z</time>
      </trkpt>
      <trkpt lat="48.70141" lon="1.75848">
        <ele>166.19999694824</ele>
        <time>2012-03-25T12:11:58.000Z</time>
      </trkpt>
      <trkpt lat="48.70145" lon="1.75864">
        <ele>166.60000610352</ele>
        <time>2012-03-25T12:12:07.000Z</time>
      </trkpt>
      <trkpt lat="48.70145" lon="1.75864">
        <ele>166.60000610352</ele>
        <time>2012-03-25T12:12:08.000Z</time>
      </trkpt>
      <trkpt lat="48.70146" lon="1.75868">
        <ele>166.80000305176</ele>
        <time>2012-03-25T12:12:12.000Z</time>
      </trkpt>
      <trkpt lat="48.70146" lon="1.75871">
        <ele>166.80000305176</ele>
        <time>2012-03-25T12:12:13.000Z</time>
      </trkpt>
      <trkpt lat="48.70151" lon="1.75886">
        <ele>167.19999694824</ele>
        <time>2012-03-25T12:12:19.000Z</time>
      </trkpt>
      <trkpt lat="48.70153" lon="1.75896">
        <ele>167.39999389648</ele>
        <time>2012-03-25T12:12:24.000Z</time>
      </trkpt>
      <trkpt lat="48.70154" lon="1.759">
        <ele>167.39999389648</ele>
        <time>2012-03-25T12:12:26.000Z</time>
      </trkpt>
      <trkpt lat="48.70157" lon="1.75912">
        <ele>167.80000305176</ele>
        <time>2012-03-25T12:12:32.000Z</time>
      </trkpt>
      <trkpt lat="48.70163" lon="1.75932">
        <ele>167.39999389648</ele>
        <time>2012-03-25T12:12:41.000Z</time>
      </trkpt>
      <trkpt lat="48.70168" lon="1.75949">
        <ele>167</ele>
        <time>2012-03-25T12:12:50.000Z</time>
      </trkpt>
      <trkpt lat="48.7017" lon="1.75955">
        <ele>166.80000305176</ele>
        <time>2012-03-25T12:12:53.000Z</time>
      </trkpt>
      <trkpt lat="48.70172" lon="1.75967">
        <ele>166.60000610352</ele>
        <time>2012-03-25T12:12:59.000Z</time>
      </trkpt>
      <trkpt lat="48.70176" lon="1.75976">
        <ele>166.60000610352</ele>
        <time>2012-03-25T12:13:05.000Z</time>
      </trkpt>
      <trkpt lat="48.70178" lon="1.75978">
        <ele>166.60000610352</ele>
        <time>2012-03-25T12:13:09.000Z</time>
      </trkpt>
      <trkpt lat="48.70181" lon="1.75969">
        <ele>167.19999694824</ele>
        <time>2012-03-25T12:13:16.000Z</time>
      </trkpt>
      <trkpt lat="48.70183" lon="1.75963">
        <ele>167.39999389648</ele>
        <time>2012-03-25T12:13:18.000Z</time>
      </trkpt>
      <trkpt lat="48.70191" lon="1.75952">
        <ele>168.19999694824</ele>
        <time>2012-03-25T12:13:27.000Z</time>
      </trkpt>
      <trkpt lat="48.70194" lon="1.75948">
        <ele>168.60000610352</ele>
        <time>2012-03-25T12:13:30.000Z</time>
      </trkpt>
      <trkpt lat="48.70204" lon="1.75935">
        <ele>169.39999389648</ele>
        <time>2012-03-25T12:13:39.000Z</time>
      </trkpt>
      <trkpt lat="48.70205" lon="1.75934">
        <ele>169.60000610352</ele>
        <time>2012-03-25T12:13:40.000Z</time>
      </trkpt>
      <trkpt lat="48.70214" lon="1.75919">
        <ele>170.19999694824</ele>
        <time>2012-03-25T12:13:48.000Z</time>
      </trkpt>
      <trkpt lat="48.70222" lon="1.75908">
        <ele>170.60000610352</ele>
        <time>2012-03-25T12:13:56.000Z</time>
      </trkpt>
      <trkpt lat="48.7023" lon="1.75897">
        <ele>171</ele>
        <time>2012-03-25T12:14:04.000Z</time>
      </trkpt>
      <trkpt lat="48.70237" lon="1.75887">
        <ele>171.19999694824</ele>
        <time>2012-03-25T12:14:11.000Z</time>
      </trkpt>
      <trkpt lat="48.70243" lon="1.75878">
        <ele>171.60000610352</ele>
        <time>2012-03-25T12:14:18.000Z</time>
      </trkpt>
      <trkpt lat="48.70247" lon="1.75873">
        <ele>171.80000305176</ele>
        <time>2012-03-25T12:14:21.000Z</time>
      </trkpt>
      <trkpt lat="48.70254" lon="1.75863">
        <ele>172.19999694824</ele>
        <time>2012-03-25T12:14:27.000Z</time>
      </trkpt>
      <trkpt lat="48.70263" lon="1.7585">
        <ele>172.80000305176</ele>
        <time>2012-03-25T12:14:35.000Z</time>
      </trkpt>
      <trkpt lat="48.7027" lon="1.7584">
        <ele>173.39999389648</ele>
        <time>2012-03-25T12:14:42.000Z</time>
      </trkpt>
      <trkpt lat="48.7028" lon="1.75829">
        <ele>174.19999694824</ele>
        <time>2012-03-25T12:14:50.000Z</time>
      </trkpt>
      <trkpt lat="48.70287" lon="1.75815">
        <ele>175</ele>
        <time>2012-03-25T12:14:59.000Z</time>
      </trkpt>
      <trkpt lat="48.70293" lon="1.75806">
        <ele>175.39999389648</ele>
        <time>2012-03-25T12:15:06.000Z</time>
      </trkpt>
      <trkpt lat="48.70299" lon="1.75795">
        <ele>176</ele>
        <time>2012-03-25T12:15:13.000Z</time>
      </trkpt>
      <trkpt lat="48.703" lon="1.75794">
        <ele>176</ele>
        <time>2012-03-25T12:15:14.000Z</time>
      </trkpt>
      <trkpt lat="48.70304" lon="1.75783">
        <ele>176.39999389648</ele>
        <time>2012-03-25T12:15:20.000Z</time>
      </trkpt>
      <trkpt lat="48.70305" lon="1.75777">
        <ele>176.60000610352</ele>
        <time>2012-03-25T12:15:23.000Z</time>
      </trkpt>
      <trkpt lat="48.70312" lon="1.75755">
        <ele>177.39999389648</ele>
        <time>2012-03-25T12:15:33.000Z</time>
      </trkpt>
      <trkpt lat="48.70314" lon="1.75748">
        <ele>177.60000610352</ele>
        <time>2012-03-25T12:15:37.000Z</time>
      </trkpt>
      <trkpt lat="48.70317" lon="1.75735">
        <ele>177.80000305176</ele>
        <time>2012-03-25T12:15:43.000Z</time>
      </trkpt>
      <trkpt lat="48.7032" lon="1.75721">
        <ele>178</ele>
        <time>2012-03-25T12:15:50.000Z</time>
      </trkpt>
      <trkpt lat="48.70321" lon="1.75719">
        <ele>178</ele>
        <time>2012-03-25T12:15:51.000Z</time>
      </trkpt>
      <trkpt lat="48.70323" lon="1.75706">
        <ele>178.19999694824</ele>
        <time>2012-03-25T12:15:57.000Z</time>
      </trkpt>
      <trkpt lat="48.70324" lon="1.75697">
        <ele>178.19999694824</ele>
        <time>2012-03-25T12:16:01.000Z</time>
      </trkpt>
      <trkpt lat="48.70327" lon="1.75682">
        <ele>178.39999389648</ele>
        <time>2012-03-25T12:16:08.000Z</time>
      </trkpt>
      <trkpt lat="48.70328" lon="1.75671">
        <ele>178.60000610352</ele>
        <time>2012-03-25T12:16:13.000Z</time>
      </trkpt>
      <trkpt lat="48.70332" lon="1.75659">
        <ele>179</ele>
        <time>2012-03-25T12:16:19.000Z</time>
      </trkpt>
      <trkpt lat="48.70332" lon="1.75654">
        <ele>179</ele>
        <time>2012-03-25T12:16:21.000Z</time>
      </trkpt>
      <trkpt lat="48.70336" lon="1.75641">
        <ele>179.39999389648</ele>
        <time>2012-03-25T12:16:28.000Z</time>
      </trkpt>
      <trkpt lat="48.7034" lon="1.75621">
        <ele>180.19999694824</ele>
        <time>2012-03-25T12:16:38.000Z</time>
      </trkpt>
      <trkpt lat="48.70345" lon="1.75603">
        <ele>180.60000610352</ele>
        <time>2012-03-25T12:16:47.000Z</time>
      </trkpt>
      <trkpt lat="48.70345" lon="1.75598">
        <ele>180.80000305176</ele>
        <time>2012-03-25T12:16:52.000Z</time>
      </trkpt>
      <trkpt lat="48.70345" lon="1.75598">
        <ele>180.80000305176</ele>
        <time>2012-03-25T12:16:53.000Z</time>
      </trkpt>
      <trkpt lat="48.70353" lon="1.7557">
        <ele>181.39999389648</ele>
        <time>2012-03-25T12:18:14.000Z</time>
      </trkpt>
      <trkpt lat="48.70356" lon="1.75554">
        <ele>181.80000305176</ele>
        <time>2012-03-25T12:18:20.000Z</time>
      </trkpt>
      <trkpt lat="48.70361" lon="1.75543">
        <ele>182</ele>
        <time>2012-03-25T12:18:27.000Z</time>
      </trkpt>
      <trkpt lat="48.70364" lon="1.75528">
        <ele>182.19999694824</ele>
        <time>2012-03-25T12:18:34.000Z</time>
      </trkpt>
      <trkpt lat="48.70368" lon="1.75514">
        <ele>182.19999694824</ele>
        <time>2012-03-25T12:18:41.000Z</time>
      </trkpt>
      <trkpt lat="48.70369" lon="1.75509">
        <ele>182.39999389648</ele>
        <time>2012-03-25T12:18:43.000Z</time>
      </trkpt>
      <trkpt lat="48.70371" lon="1.75502">
        <ele>182.39999389648</ele>
        <time>2012-03-25T12:18:47.000Z</time>
      </trkpt>
      <trkpt lat="48.70372" lon="1.75486">
        <ele>182.19999694824</ele>
        <time>2012-03-25T12:18:54.000Z</time>
      </trkpt>
      <trkpt lat="48.70375" lon="1.75469">
        <ele>182.19999694824</ele>
        <time>2012-03-25T12:19:01.000Z</time>
      </trkpt>
      <trkpt lat="48.70377" lon="1.75457">
        <ele>182</ele>
        <time>2012-03-25T12:19:08.000Z</time>
      </trkpt>
      <trkpt lat="48.70378" lon="1.75445">
        <ele>182</ele>
        <time>2012-03-25T12:19:14.000Z</time>
      </trkpt>
      <trkpt lat="48.7038" lon="1.75428">
        <ele>181.80000305176</ele>
        <time>2012-03-25T12:19:22.000Z</time>
      </trkpt>
      <trkpt lat="48.70384" lon="1.75415">
        <ele>181.60000610352</ele>
        <time>2012-03-25T12:19:29.000Z</time>
      </trkpt>
      <trkpt lat="48.70387" lon="1.75408">
        <ele>181.39999389648</ele>
        <time>2012-03-25T12:19:33.000Z</time>
      </trkpt>
      <trkpt lat="48.70391" lon="1.75396">
        <ele>181</ele>
        <time>2012-03-25T12:19:40.000Z</time>
      </trkpt>
      <trkpt lat="48.70394" lon="1.75387">
        <ele>180.80000305176</ele>
        <time>2012-03-25T12:19:45.000Z</time>
      </trkpt>
      <trkpt lat="48.70396" lon="1.75375">
        <ele>180.19999694824</ele>
        <time>2012-03-25T12:19:52.000Z</time>
      </trkpt>
      <trkpt lat="48.70404" lon="1.7536">
        <ele>179.60000610352</ele>
        <time>2012-03-25T12:20:03.000Z</time>
      </trkpt>
      <trkpt lat="48.70407" lon="1.75348">
        <ele>179</ele>
        <time>2012-03-25T12:20:10.000Z</time>
      </trkpt>
      <trkpt lat="48.70408" lon="1.75341">
        <ele>178.60000610352</ele>
        <time>2012-03-25T12:20:13.000Z</time>
      </trkpt>
      <trkpt lat="48.70413" lon="1.75326">
        <ele>178.19999694824</ele>
        <time>2012-03-25T12:20:21.000Z</time>
      </trkpt>
      <trkpt lat="48.70415" lon="1.75313">
        <ele>178.39999389648</ele>
        <time>2012-03-25T12:20:27.000Z</time>
      </trkpt>
      <trkpt lat="48.70418" lon="1.75297">
        <ele>178.39999389648</ele>
        <time>2012-03-25T12:20:34.000Z</time>
      </trkpt>
      <trkpt lat="48.70424" lon="1.75278">
        <ele>178.19999694824</ele>
        <time>2012-03-25T12:20:44.000Z</time>
      </trkpt>
      <trkpt lat="48.70426" lon="1.75273">
        <ele>178</ele>
        <time>2012-03-25T12:20:47.000Z</time>
      </trkpt>
      <trkpt lat="48.70429" lon="1.75268">
        <ele>177.80000305176</ele>
        <time>2012-03-25T12:20:53.000Z</time>
      </trkpt>
      <trkpt lat="48.70432" lon="1.75257">
        <ele>177.60000610352</ele>
        <time>2012-03-25T12:21:04.000Z</time>
      </trkpt>
      <trkpt lat="48.70435" lon="1.75246">
        <ele>177.60000610352</ele>
        <time>2012-03-25T12:21:09.000Z</time>
      </trkpt>
      <trkpt lat="48.70437" lon="1.7524">
        <ele>177.80000305176</ele>
        <time>2012-03-25T12:21:12.000Z</time>
      </trkpt>
      <trkpt lat="48.70442" lon="1.75224">
        <ele>177.80000305176</ele>
        <time>2012-03-25T12:21:21.000Z</time>
      </trkpt>
      <trkpt lat="48.70444" lon="1.75217">
        <ele>177.80000305176</ele>
        <time>2012-03-25T12:21:25.000Z</time>
      </trkpt>
      <trkpt lat="48.70449" lon="1.75203">
        <ele>177.80000305176</ele>
        <time>2012-03-25T12:21:33.000Z</time>
      </trkpt>
      <trkpt lat="48.70452" lon="1.75189">
        <ele>178</ele>
        <time>2012-03-25T12:21:41.000Z</time>
      </trkpt>
      <trkpt lat="48.70458" lon="1.7517">
        <ele>178</ele>
        <time>2012-03-25T12:21:51.000Z</time>
      </trkpt>
      <trkpt lat="48.70464" lon="1.75156">
        <ele>177.60000610352</ele>
        <time>2012-03-25T12:21:59.000Z</time>
      </trkpt>
      <trkpt lat="48.70471" lon="1.7514">
        <ele>177.60000610352</ele>
        <time>2012-03-25T12:22:09.000Z</time>
      </trkpt>
      <trkpt lat="48.70472" lon="1.75135">
        <ele>177.60000610352</ele>
        <time>2012-03-25T12:22:11.000Z</time>
      </trkpt>
      <trkpt lat="48.70477" lon="1.7513">
        <ele>177.39999389648</ele>
        <time>2012-03-25T12:22:16.000Z</time>
      </trkpt>
      <trkpt lat="48.70486" lon="1.75139">
        <ele>176.19999694824</ele>
        <time>2012-03-25T12:22:24.000Z</time>
      </trkpt>
      <trkpt lat="48.70493" lon="1.75145">
        <ele>175.19999694824</ele>
        <time>2012-03-25T12:22:29.000Z</time>
      </trkpt>
      <trkpt lat="48.70501" lon="1.75153">
        <ele>174</ele>
        <time>2012-03-25T12:22:35.000Z</time>
      </trkpt>
      <trkpt lat="48.70509" lon="1.75161">
        <ele>173.39999389648</ele>
        <time>2012-03-25T12:22:41.000Z</time>
      </trkpt>
      <trkpt lat="48.70518" lon="1.75169">
        <ele>173</ele>
        <time>2012-03-25T12:22:48.000Z</time>
      </trkpt>
      <trkpt lat="48.70525" lon="1.75176">
        <ele>172.80000305176</ele>
        <time>2012-03-25T12:22:54.000Z</time>
      </trkpt>
      <trkpt lat="48.70531" lon="1.75179">
        <ele>172.80000305176</ele>
        <time>2012-03-25T12:22:59.000Z</time>
      </trkpt>
      <trkpt lat="48.70531" lon="1.7518">
        <ele>172.80000305176</ele>
        <time>2012-03-25T12:23:01.000Z</time>
      </trkpt>
      <trkpt lat="48.70536" lon="1.75183">
        <ele>172.80000305176</ele>
        <time>2012-03-25T12:23:17.000Z</time>
      </trkpt>
      <trkpt lat="48.7055" lon="1.75196">
        <ele>172.60000610352</ele>
        <time>2012-03-25T12:23:27.000Z</time>
      </trkpt>
      <trkpt lat="48.70561" lon="1.75206">
        <ele>172.60000610352</ele>
        <time>2012-03-25T12:23:36.000Z</time>
      </trkpt>
      <trkpt lat="48.70566" lon="1.75212">
        <ele>172.39999389648</ele>
        <time>2012-03-25T12:23:41.000Z</time>
      </trkpt>
      <trkpt lat="48.70583" lon="1.75226">
        <ele>172.19999694824</ele>
        <time>2012-03-25T12:23:54.000Z</time>
      </trkpt>
      <trkpt lat="48.70589" lon="1.75232">
        <ele>172.19999694824</ele>
        <time>2012-03-25T12:24:02.000Z</time>
      </trkpt>
      <trkpt lat="48.70591" lon="1.75234">
        <ele>172.19999694824</ele>
        <time>2012-03-25T12:24:10.000Z</time>
      </trkpt>
      <trkpt lat="48.70601" lon="1.75242">
        <ele>172.19999694824</ele>
        <time>2012-03-25T12:24:17.000Z</time>
      </trkpt>
      <trkpt lat="48.70609" lon="1.75249">
        <ele>172.39999389648</ele>
        <time>2012-03-25T12:24:24.000Z</time>
      </trkpt>
      <trkpt lat="48.70621" lon="1.75259">
        <ele>172.19999694824</ele>
        <time>2012-03-25T12:24:33.000Z</time>
      </trkpt>
      <trkpt lat="48.70624" lon="1.75261">
        <ele>172.19999694824</ele>
        <time>2012-03-25T12:24:37.000Z</time>
      </trkpt>
      <trkpt lat="48.70636" lon="1.75271">
        <ele>172.19999694824</ele>
        <time>2012-03-25T12:24:46.000Z</time>
      </trkpt>
      <trkpt lat="48.70645" lon="1.7528">
        <ele>172.19999694824</ele>
        <time>2012-03-25T12:24:54.000Z</time>
      </trkpt>
      <trkpt lat="48.70653" lon="1.75287">
        <ele>172</ele>
        <time>2012-03-25T12:25:01.000Z</time>
      </trkpt>
      <trkpt lat="48.70655" lon="1.75292">
        <ele>172</ele>
        <time>2012-03-25T12:25:04.000Z</time>
      </trkpt>
      <trkpt lat="48.70671" lon="1.75308">
        <ele>171.60000610352</ele>
        <time>2012-03-25T12:25:17.000Z</time>
      </trkpt>
      <trkpt lat="48.70683" lon="1.75318">
        <ele>171.60000610352</ele>
        <time>2012-03-25T12:25:27.000Z</time>
      </trkpt>
      <trkpt lat="48.70697" lon="1.75331">
        <ele>171.80000305176</ele>
        <time>2012-03-25T12:25:38.000Z</time>
      </trkpt>
      <trkpt lat="48.70712" lon="1.75345">
        <ele>172</ele>
        <time>2012-03-25T12:25:50.000Z</time>
      </trkpt>
      <trkpt lat="48.70723" lon="1.75356">
        <ele>172.19999694824</ele>
        <time>2012-03-25T12:26:00.000Z</time>
      </trkpt>
      <trkpt lat="48.70727" lon="1.75359">
        <ele>172.19999694824</ele>
        <time>2012-03-25T12:26:06.000Z</time>
      </trkpt>
      <trkpt lat="48.70728" lon="1.75362">
        <ele>172.19999694824</ele>
        <time>2012-03-25T12:26:28.000Z</time>
      </trkpt>
      <trkpt lat="48.70728" lon="1.75363">
        <ele>172.19999694824</ele>
        <time>2012-03-25T12:26:30.000Z</time>
      </trkpt>
      <trkpt lat="48.70703" lon="1.75469">
        <ele>171.80000305176</ele>
        <time>2012-03-25T12:30:31.000Z</time>
      </trkpt>
      <trkpt lat="48.70705" lon="1.75458">
        <ele>171.80000305176</ele>
        <time>2012-03-25T12:30:36.000Z</time>
      </trkpt>
      <trkpt lat="48.7071" lon="1.75453">
        <ele>171.80000305176</ele>
        <time>2012-03-25T12:30:43.000Z</time>
      </trkpt>
      <trkpt lat="48.70711" lon="1.75451">
        <ele>171.60000610352</ele>
        <time>2012-03-25T12:30:47.000Z</time>
      </trkpt>
    </trkseg>
  </trk>
</gpx>